Observation data for Wall on 03/01/2021      Previous  Date  Next       Current Mesonet Observations  Soil Data  Daily Summary Page  Observations in Plain Language
KWA1 010600Z 04011KT 09/M02 A3005 RMK A01 T00851022  RH  047%=      5-min Rain = 0
KWA1 010601Z 04012KT 09/M02 A3005 RMK A01 T00851022  RH  047%=      5-min Rain = 0
KWA1 010602Z 04011KT 09/M02 A3005 RMK A01 T00851023  RH  047%=      5-min Rain = 0
KWA1 010603Z 04011KT 09/M02 A3005 RMK A01 T00851023  RH  047%=      5-min Rain = 0
KWA1 010604Z 04010KT 09/M02 A3005 RMK A01 T00851022  RH  047%=      5-min Rain = 0
KWA1 010605Z 04010KT 09/M02 A3005 RMK A01 T00851023  RH  047%=      5-min Rain = 0
KWA1 010606Z 05010KT 09/M02 A3005 RMK A01 T00851022  RH  047%=      5-min Rain = 0
KWA1 010607Z 05009KT 09/M02 A3005 RMK A01 T00851022  RH  047%=      5-min Rain = 0
KWA1 010608Z 05009KT 09/M02 A3005 RMK A01 T00851021  RH  047%=      5-min Rain = 0
KWA1 010609Z 05009KT 08/M02 A3005 RMK A01 T00841022  RH  047%=      5-min Rain = 0
KWA1 010610Z 05010KT 09/M02 A3006 RMK A01 T00851022  RH  047%=      5-min Rain = 0
KWA1 010611Z 05009KT 08/M02 A3006 RMK A01 T00841022  RH  047%=      5-min Rain = 0
KWA1 010612Z 05010KT 09/M02 A3006 RMK A01 T00851023  RH  047%=      5-min Rain = 0
KWA1 010613Z 05010KT 09/M02 A3006 RMK A01 T00851023  RH  046%=      5-min Rain = 0
KWA1 010614Z 05009KT 09/M02 A3006 RMK A01 T00861024  RH  046%=      5-min Rain = 0
KWA1 010615Z 05010KT 09/M02 A3006 RMK A01 T00861022  RH  047%=      5-min Rain = 0
KWA1 010616Z 05009KT 09/M02 A3006 RMK A01 T00861023  RH  046%=      5-min Rain = 0
KWA1 010617Z 05010KT 09/M02 A3005 RMK A01 T00871024  RH  046%=      5-min Rain = 0
KWA1 010618Z 05012KT 09/M03 A3005 RMK A01 T00871025  RH  045%=      5-min Rain = 0
KWA1 010619Z 05012KT 09/M03 A3005 RMK A01 T00881025  RH  045%=      5-min Rain = 0
KWA1 010620Z 05012KT 09/M03 A3005 RMK A01 T00891026  RH  044%=      5-min Rain = 0
KWA1 010621Z 05012KT 09/M03 A3005 RMK A01 T00891026  RH  044%=      5-min Rain = 0
KWA1 010622Z 05013KT 09/M03 A3005 RMK A01 T00891026  RH  044%=      5-min Rain = 0
KWA1 010623Z 05011KT 09/M03 A3005 RMK A01 T00891027  RH  044%=      5-min Rain = 0
KWA1 010624Z 05011KT 09/M03 A3005 RMK A01 T00891026  RH  044%=      5-min Rain = 0
KWA1 010625Z 05011KT 09/M03 A3005 RMK A01 T00891026  RH  044%=      5-min Rain = 0
KWA1 010626Z 05011KT 09/M03 A3005 RMK A01 T00891027  RH  044%=      5-min Rain = 0
KWA1 010627Z 05010KT 09/M03 A3005 RMK A01 T00891027  RH  044%=      5-min Rain = 0
KWA1 010628Z 05011KT 09/M03 A3005 RMK A01 T00891026  RH  044%=      5-min Rain = 0
KWA1 010629Z 05012KT 09/M03 A3005 RMK A01 T00891028  RH  044%=      5-min Rain = 0
KWA1 010630Z 05013KT 09/M03 A3005 RMK A01 T00891028  RH  044%=      5-min Rain = 0
KWA1 010631Z 05013KT 09/M03 A3004 RMK A01 T00901029  RH  043%=      5-min Rain = 0
KWA1 010632Z 05013KT 09/M03 A3005 RMK A01 T00901029  RH  043%=      5-min Rain = 0
KWA1 010633Z 05013KT 09/M03 A3005 RMK A01 T00901030  RH  043%=      5-min Rain = 0
KWA1 010634Z 05012KT 09/M03 A3005 RMK A01 T00901029  RH  043%=      5-min Rain = 0
KWA1 010635Z 05012KT 09/M03 A3005 RMK A01 T00901029  RH  043%=      5-min Rain = 0
KWA1 010636Z 05012KT 09/M03 A3005 RMK A01 T00901029  RH  043%=      5-min Rain = 0
KWA1 010637Z 05012KT 09/M03 A3005 RMK A01 T00891029  RH  043%=      5-min Rain = 0
KWA1 010638Z 05012KT 09/M03 A3005 RMK A01 T00901030  RH  043%=      5-min Rain = 0
KWA1 010639Z 06012KT 09/M03 A3005 RMK A01 T00901029  RH  043%=      5-min Rain = 0
KWA1 010640Z 06013KT 09/M03 A3005 RMK A01 T00901031  RH  042%=      5-min Rain = 0
KWA1 010641Z 06014KT 09/M03 A3005 RMK A01 T00901031  RH  042%=      5-min Rain = 0
KWA1 010642Z 06014KT 09/M03 A3005 RMK A01 T00911033  RH  042%=      5-min Rain = 0
KWA1 010643Z 06014KT 09/M03 A3005 RMK A01 T00911033  RH  041%=      5-min Rain = 0
KWA1 010644Z 06014KT 09/M03 A3005 RMK A01 T00921033  RH  041%=      5-min Rain = 0
KWA1 010645Z 06014KT 09/M03 A3005 RMK A01 T00921034  RH  041%=      5-min Rain = 0
KWA1 010646Z 06013KT 09/M03 A3005 RMK A01 T00921033  RH  041%=      5-min Rain = 0
KWA1 010647Z 06015KT 09/M03 A3005 RMK A01 T00921032  RH  041%=      5-min Rain = 0
KWA1 010648Z 06014KT 09/M03 A3006 RMK A01 T00921033  RH  041%=      5-min Rain = 0
KWA1 010649Z 06012KT 09/M03 A3006 RMK A01 T00921032  RH  041%=      5-min Rain = 0
KWA1 010650Z 06015KT 09/M03 A3006 RMK A01 T00921032  RH  041%=      5-min Rain = 0
KWA1 010651Z 05014KT 09/M04 A3006 RMK A01 T00931036  RH  040%=      5-min Rain = 0
KWA1 010652Z 05012KT 09/M03 A3006 RMK A01 T00931033  RH  041%=      5-min Rain = 0
KWA1 010653Z 06013KT 09/M03 A3006 RMK A01 T00931032  RH  041%=      5-min Rain = 0
KWA1 010654Z 05014KT 09/M04 A3006 RMK A01 T00931035  RH  040%=      5-min Rain = 0
KWA1 010655Z 05015KT 09/M04 A3005 RMK A01 T00931035  RH  040%=      5-min Rain = 0
KWA1 010656Z 05015KT 09/M04 A3006 RMK A01 T00931037  RH  040%=      5-min Rain = 0
KWA1 010657Z 06014KT 09/M04 A3006 RMK A01 T00941035  RH  040%=      5-min Rain = 0
KWA1 010658Z 05013KT 09/M04 A3006 RMK A01 T00941035  RH  040%=      5-min Rain = 0
KWA1 010659Z 06015KT 09/M04 A3006 RMK A01 T00941037  RH  040%=      5-min Rain = 0
KWA1 010700Z 06014KT 09/M04 A3006 RMK A01 T00941037  RH  039%=      5-min Rain = 0
KWA1 010701Z 06012KT 09/M04 A3007 RMK A01 T00941036  RH  040%=      5-min Rain = 0
KWA1 010702Z 06013KT 09/M04 A3007 RMK A01 T00941036  RH  040%=      5-min Rain = 0
KWA1 010703Z 06015KT 09/M04 A3007 RMK A01 T00941039  RH  039%=      5-min Rain = 0
KWA1 010704Z 06016KT 09/M04 A3007 RMK A01 T00941040  RH  039%=      5-min Rain = 0
KWA1 010705Z 06015KT 10/M04 A3007 RMK A01 T00951040  RH  038%=      5-min Rain = 0
KWA1 010706Z 06013KT 10/M04 A3007 RMK A01 T00951039  RH  039%=      5-min Rain = 0
KWA1 010707Z 06013KT 10/M04 A3007 RMK A01 T00951039  RH  039%=      5-min Rain = 0
KWA1 010708Z 06013KT 10/M04 A3007 RMK A01 T00951039  RH  039%=      5-min Rain = 0
KWA1 010709Z 06013KT 10/M04 A3008 RMK A01 T00951040  RH  038%=      5-min Rain = 0
KWA1 010710Z 06011KT 10/M04 A3008 RMK A01 T00951038  RH  039%=      5-min Rain = 0
KWA1 010711Z 06013KT 10/M04 A3008 RMK A01 T00951039  RH  039%=      5-min Rain = 0
KWA1 010712Z 06012G18KT 10/M04 A3008 RMK A01 T00951040  RH  038%=      5-min Rain = 0
KWA1 010713Z 06015KT 10/M04 A3008 RMK A01 T00961041  RH  038%=      5-min Rain = 0
KWA1 010714Z 06013KT 10/M04 A3008 RMK A01 T00961040  RH  038%=      5-min Rain = 0
KWA1 010715Z 05013KT 10/M04 A3008 RMK A01 T00961039  RH  038%=      5-min Rain = 0
KWA1 010716Z 06016KT 10/M04 A3008 RMK A01 T00961040  RH  038%=      5-min Rain = 0
KWA1 010717Z 06017KT 10/M04 A3008 RMK A01 T00971042  RH  037%=      5-min Rain = 0
KWA1 010718Z 06017KT 10/M04 A3008 RMK A01 T00971041  RH  037%=      5-min Rain = 0
KWA1 010719Z 06016KT 10/M04 A3009 RMK A01 T00971041  RH  038%=      5-min Rain = 0
KWA1 010720Z 06013KT 10/M04 A3009 RMK A01 T00971039  RH  038%=      5-min Rain = 0
KWA1 010721Z 06015KT 10/M04 A3009 RMK A01 T00971040  RH  038%=      5-min Rain = 0
KWA1 010722Z 06012KT 10/M04 A3009 RMK A01 T00971039  RH  038%=      5-min Rain = 0
KWA1 010723Z 06014KT 10/M04 A3009 RMK A01 T00971039  RH  038%=      5-min Rain = 0
KWA1 010724Z 06011KT 10/M04 A3009 RMK A01 T00971036  RH  039%=      5-min Rain = 0
KWA1 010725Z 06013KT 10/M03 A3009 RMK A01 T00961034  RH  040%=      5-min Rain = 0
KWA1 010726Z 06013KT 10/M03 A3009 RMK A01 T00961032  RH  040%=      5-min Rain = 0
KWA1 010727Z 06013KT 10/M03 A3009 RMK A01 T00961029  RH  041%=      5-min Rain = 0
KWA1 010728Z 06015KT 10/M03 A3009 RMK A01 T00951032  RH  041%=      5-min Rain = 0
KWA1 010729Z 06015KT 10/M03 A3008 RMK A01 T00951031  RH  041%=      5-min Rain = 0
KWA1 010730Z 05013KT 10/M03 A3008 RMK A01 T00951030  RH  041%=      5-min Rain = 0
KWA1 010731Z 05014KT 09/M03 A3008 RMK A01 T00941028  RH  042%=      5-min Rain = 0
KWA1 010732Z 05015KT 09/M03 A3008 RMK A01 T00941029  RH  042%=      5-min Rain = 0
KWA1 010733Z 05014KT 09/M03 A3009 RMK A01 T00941028  RH  042%=      5-min Rain = 0
KWA1 010734Z 05013KT 09/M03 A3009 RMK A01 T00941027  RH  043%=      5-min Rain = 0
KWA1 010735Z 05014KT 09/M03 A3009 RMK A01 T00941026  RH  043%=      5-min Rain = 0
KWA1 010736Z 05012KT 09/M03 A3009 RMK A01 T00941027  RH  042%=      5-min Rain = 0
KWA1 010737Z 04012KT 09/M03 A3009 RMK A01 T00941026  RH  043%=      5-min Rain = 0
KWA1 010738Z 04012KT 09/M03 A301 RMK A01 T00941026  RH  043%=      5-min Rain = 0
KWA1 010739Z 04012KT 09/M03 A301 RMK A01 T00941026  RH  043%=      5-min Rain = 0
KWA1 010740Z 03012KT 09/M03 A301 RMK A01 T00941028  RH  042%=      5-min Rain = 0
KWA1 010741Z 03011KT 09/M03 A301 RMK A01 T00941027  RH  042%=      5-min Rain = 0
KWA1 010742Z 03012KT 09/M03 A301 RMK A01 T00941025  RH  043%=      5-min Rain = 0
KWA1 010743Z 03011KT 09/M02 A301 RMK A01 T00941024  RH  044%=      5-min Rain = 0
KWA1 010744Z 03013KT 09/M02 A301 RMK A01 T00931023  RH  044%=      5-min Rain = 0
KWA1 010745Z 03012KT 09/M02 A301 RMK A01 T00931023  RH  044%=      5-min Rain = 0
KWA1 010746Z 03015KT 09/M02 A301 RMK A01 T00931022  RH  044%=      5-min Rain = 0
KWA1 010747Z 03015KT 09/M02 A301 RMK A01 T00931024  RH  044%=      5-min Rain = 0
KWA1 010748Z 02016KT 09/M02 A301 RMK A01 T00931024  RH  044%=      5-min Rain = 0
KWA1 010749Z 02015KT 09/M02 A301 RMK A01 T00931023  RH  044%=      5-min Rain = 0
KWA1 010750Z 02016KT 09/M02 A301 RMK A01 T00931023  RH  044%=      5-min Rain = 0
KWA1 010751Z 02016KT 09/M02 A3011 RMK A01 T00931024  RH  044%=      5-min Rain = 0
KWA1 010752Z 02014KT 09/M02 A3011 RMK A01 T00931024  RH  044%=      5-min Rain = 0
KWA1 010753Z 02015KT 09/M03 A3011 RMK A01 T00941025  RH  043%=      5-min Rain = 0
KWA1 010754Z 01014KT 09/M03 A3011 RMK A01 T00941025  RH  043%=      5-min Rain = 0
KWA1 010755Z 00012KT 09/M02 A3012 RMK A01 T00941024  RH  043%=      5-min Rain = 0
KWA1 010756Z 35012KT 09/M02 A3012 RMK A01 T00941024  RH  044%=      5-min Rain = 0
KWA1 010757Z 36011KT 09/M02 A3013 RMK A01 T00941023  RH  044%=      5-min Rain = 0
KWA1 010758Z 36011KT 09/M02 A3013 RMK A01 T00931022  RH  044%=      5-min Rain = 0
KWA1 010759Z 01011KT 09/M02 A3013 RMK A01 T00931023  RH  044%=      5-min Rain = 0
KWA1 010800Z 01012KT 09/M02 A3013 RMK A01 T00931023  RH  044%=      5-min Rain = 0
KWA1 010801Z 02012KT 09/M03 A3013 RMK A01 T00931025  RH  043%=      5-min Rain = 0
KWA1 010802Z 02015KT 09/M02 A3013 RMK A01 T00931024  RH  044%=      5-min Rain = 0
KWA1 010803Z 03015KT 09/M02 A3012 RMK A01 T00941023  RH  044%=      5-min Rain = 0
KWA1 010804Z 03017KT 09/M02 A3012 RMK A01 T00941024  RH  044%=      5-min Rain = 0
KWA1 010805Z 03018KT 09/M02 A3012 RMK A01 T00941024  RH  044%=      5-min Rain = 0
KWA1 010806Z 03018KT 09/M03 A3012 RMK A01 T00941025  RH  043%=      5-min Rain = 0
KWA1 010807Z 03017KT 09/M03 A3012 RMK A01 T00941026  RH  043%=      5-min Rain = 0
KWA1 010808Z 03017KT 09/M03 A3012 RMK A01 T00941025  RH  043%=      5-min Rain = 0
KWA1 010809Z 03018KT 09/M03 A3012 RMK A01 T00941025  RH  043%=      5-min Rain = 0
KWA1 010810Z 03016KT 09/M03 A3012 RMK A01 T00941025  RH  043%=      5-min Rain = 0
KWA1 010811Z 02015KT 09/M03 A3013 RMK A01 T00941025  RH  043%=      5-min Rain = 0
KWA1 010812Z 02015KT 09/M03 A3014 RMK A01 T00941025  RH  043%=      5-min Rain = 0
KWA1 010813Z 01014KT 09/M03 A3015 RMK A01 T00941026  RH  043%=      5-min Rain = 0
KWA1 010814Z 36014KT 09/M03 A3015 RMK A01 T00941026  RH  043%=      5-min Rain = 0
KWA1 010815Z 35015KT 09/M03 A3016 RMK A01 T00941026  RH  043%=      5-min Rain = 0
KWA1 010816Z 35015KT 09/M03 A3017 RMK A01 T00941026  RH  043%=      5-min Rain = 0
KWA1 010817Z 34017KT 09/M03 A3017 RMK A01 T00941026  RH  043%=      5-min Rain = 0
KWA1 010818Z 35017KT 09/M03 A3017 RMK A01 T00941025  RH  043%=      5-min Rain = 0
KWA1 010819Z 35016KT 09/M02 A3017 RMK A01 T00941024  RH  043%=      5-min Rain = 0
KWA1 010820Z 35015KT 09/M02 A3017 RMK A01 T00941022  RH  044%=      5-min Rain = 0
KWA1 010821Z 36015KT 09/M02 A3017 RMK A01 T00941022  RH  044%=      5-min Rain = 0
KWA1 010822Z 00016KT 09/M02 A3017 RMK A01 T00941022  RH  044%=      5-min Rain = 0
KWA1 010823Z 01016KT 09/M02 A3016 RMK A01 T00941021  RH  044%=      5-min Rain = 0
KWA1 010824Z 01016KT 09/M02 A3016 RMK A01 T00931022  RH  045%=      5-min Rain = 0
KWA1 010825Z 01014KT 09/M02 A3016 RMK A01 T00931020  RH  045%=      5-min Rain = 0
KWA1 010826Z 00015KT 09/M02 A3017 RMK A01 T00931019  RH  046%=      5-min Rain = 0
KWA1 010827Z 00015KT 09/M02 A3017 RMK A01 T00921018  RH  046%=      5-min Rain = 0
KWA1 010828Z 00015KT 09/M02 A3017 RMK A01 T00921017  RH  046%=      5-min Rain = 0
KWA1 010829Z 00015KT 09/M02 A3017 RMK A01 T00921016  RH  047%=      5-min Rain = 0
KWA1 010830Z 01014KT 09/M02 A3016 RMK A01 T00911015  RH  047%=      5-min Rain = 0
KWA1 010831Z 01014KT 09/M01 A3016 RMK A01 T00911013  RH  048%=      5-min Rain = 0
KWA1 010832Z 01016KT 09/M01 A3015 RMK A01 T00901013  RH  049%=      5-min Rain = 0
KWA1 010833Z 02014KT 09/M01 A3015 RMK A01 T00891012  RH  049%=      5-min Rain = 0
KWA1 010834Z 01015KT 09/M01 A3015 RMK A01 T00891011  RH  050%=      5-min Rain = 0
KWA1 010835Z 01015KT 09/M01 A3014 RMK A01 T00881011  RH  050%=      5-min Rain = 0
KWA1 010836Z 01018KT 09/M01 A3014 RMK A01 T00881011  RH  050%=      5-min Rain = 0
KWA1 010837Z 02017KT 09/M01 A3014 RMK A01 T00881011  RH  050%=      5-min Rain = 0
KWA1 010838Z 02017KT 09/M01 A3014 RMK A01 T00871009  RH  051%=      5-min Rain = 0
KWA1 010839Z 01020KT 09/M01 A3014 RMK A01 T00861009  RH  051%=      5-min Rain = 0
KWA1 010840Z 01018KT 09/M01 A3014 RMK A01 T00861010  RH  051%=      5-min Rain = 0
KWA1 010841Z 01017KT 09/M01 A3015 RMK A01 T00861008  RH  052%=      5-min Rain = 0
KWA1 010842Z 02015KT 09/M01 A3015 RMK A01 T00851007  RH  052%=      5-min Rain = 0
KWA1 010843Z 02016KT 08/M01 A3016 RMK A01 T00841006  RH  053%=      5-min Rain = 0
KWA1 010844Z 02016KT 08/M01 A3016 RMK A01 T00841006  RH  053%=      5-min Rain = 0
KWA1 010845Z 02015KT 08/M00 A3015 RMK A01 T00831004  RH  054%=      5-min Rain = 0
KWA1 010846Z 02014KT 08/M00 A3015 RMK A01 T00821003  RH  055%=      5-min Rain = 0
KWA1 010847Z 02014KT 08/M00 A3015 RMK A01 T00811002  RH  056%=      5-min Rain = 0
KWA1 010848Z 02018KT 08/M00 A3015 RMK A01 T00811002  RH  056%=      5-min Rain = 0
KWA1 010849Z 02017KT 08/M00 A3015 RMK A01 T00811003  RH  055%=      5-min Rain = 0
KWA1 010850Z 02015KT 08/M00 A3015 RMK A01 T00811002  RH  056%=      5-min Rain = 0
KWA1 010851Z 02016KT 08/M00 A3015 RMK A01 T00811002  RH  056%=      5-min Rain = 0
KWA1 010852Z 02017KT 08/M00 A3015 RMK A01 T00801002  RH  056%=      5-min Rain = 0
KWA1 010853Z 02015KT 08/M00 A3015 RMK A01 T00801002  RH  057%=      5-min Rain = 0
KWA1 010854Z 02016KT 08/M00 A3015 RMK A01 T00791001  RH  057%=      5-min Rain = 0
KWA1 010855Z 02016KT 08/00 A3015 RMK A01 T00790000  RH  058%=      5-min Rain = 0
KWA1 010856Z 02016KT 08/00 A3014 RMK A01 T00780000  RH  058%=      5-min Rain = 0
KWA1 010857Z 02016KT 08/00 A3014 RMK A01 T00780001  RH  058%=      5-min Rain = 0
KWA1 010858Z 02015KT 08/00 A3014 RMK A01 T00770001  RH  059%=      5-min Rain = 0
KWA1 010859Z 03017KT 08/00 A3014 RMK A01 T00770001  RH  059%=      5-min Rain = 0
KWA1 010900Z 03017G22KT 08/00 A3014 RMK A01 T00770001  RH  059%=      5-min Rain = 0
KWA1 010901Z 03018KT 08/00 A3014 RMK A01 T00760001  RH  059%=      5-min Rain = 0
KWA1 010902Z 03018KT 08/00 A3014 RMK A01 T00760002  RH  059%=      5-min Rain = 0
KWA1 010903Z 03016KT 08/00 A3014 RMK A01 T00750002  RH  060%=      5-min Rain = 0
KWA1 010904Z 03018KT 07/00 A3014 RMK A01 T00740002  RH  060%=      5-min Rain = 0
KWA1 010905Z 03018KT 07/00 A3014 RMK A01 T00740001  RH  060%=      5-min Rain = 0
KWA1 010906Z 03020KT 07/00 A3014 RMK A01 T00740000  RH  060%=      5-min Rain = 0
KWA1 010907Z 03019KT 07/00 A3014 RMK A01 T00740000  RH  060%=      5-min Rain = 0
KWA1 010908Z 03020KT 07/00 A3014 RMK A01 T00730000  RH  060%=      5-min Rain = 0
KWA1 010909Z 03018KT 07/00 A3014 RMK A01 T007300-0  RH  060%=      5-min Rain = 0
KWA1 010910Z 03020KT 07/00 A3014 RMK A01 T007300-0  RH  060%=      5-min Rain = 0
KWA1 010911Z 02018KT 07/00 A3013 RMK A01 T007200-0  RH  060%=      5-min Rain = 0
KWA1 010912Z 03018KT 07/00 A3013 RMK A01 T007200-0  RH  060%=      5-min Rain = 0
KWA1 010913Z 03018KT 07/M00 A3013 RMK A01 T00711001  RH  060%=      5-min Rain = 0
KWA1 010914Z 03019KT 07/M00 A3014 RMK A01 T00721001  RH  060%=      5-min Rain = 0
KWA1 010915Z 03019KT 07/M00 A3014 RMK A01 T00721001  RH  060%=      5-min Rain = 0
KWA1 010916Z 03018KT 07/M00 A3014 RMK A01 T00721002  RH  060%=      5-min Rain = 0
KWA1 010917Z 03016KT 07/M00 A3014 RMK A01 T00711002  RH  060%=      5-min Rain = 0
KWA1 010918Z 03017KT 07/M00 A3014 RMK A01 T00721002  RH  060%=      5-min Rain = 0
KWA1 010919Z 03016KT 07/M00 A3014 RMK A01 T00721002  RH  059%=      5-min Rain = 0
KWA1 010920Z 03016KT 07/M00 A3014 RMK A01 T00711002  RH  059%=      5-min Rain = 0
KWA1 010921Z 03014KT 07/M00 A3014 RMK A01 T00711002  RH  059%=      5-min Rain = 0
KWA1 010922Z 04017KT 07/M00 A3015 RMK A01 T00711002  RH  060%=      5-min Rain = 0
KWA1 010923Z 04017KT 07/M00 A3015 RMK A01 T00711003  RH  059%=      5-min Rain = 0
KWA1 010924Z 04016KT 07/M00 A3014 RMK A01 T00711003  RH  059%=      5-min Rain = 0
KWA1 010925Z 04016KT 07/M00 A3014 RMK A01 T00711002  RH  059%=      5-min Rain = 0
KWA1 010926Z 04017KT 07/M00 A3014 RMK A01 T00711003  RH  059%=      5-min Rain = 0
KWA1 010927Z 04016KT 07/M00 A3014 RMK A01 T00711002  RH  060%=      5-min Rain = 0
KWA1 010928Z 04016KT 07/M00 A3014 RMK A01 T00711002  RH  060%=      5-min Rain = 0
KWA1 010929Z 03017KT 07/M00 A3014 RMK A01 T00711002  RH  060%=      5-min Rain = 0
KWA1 010930Z 03016KT 07/M00 A3015 RMK A01 T00711002  RH  060%=      5-min Rain = 0
KWA1 010931Z 04014KT 07/M00 A3015 RMK A01 T00711002  RH  060%=      5-min Rain = 0
KWA1 010932Z 04013KT 07/M00 A3015 RMK A01 T00711001  RH  060%=      5-min Rain = 0
KWA1 010933Z 04015KT 07/M00 A3015 RMK A01 T00711001  RH  060%=      5-min Rain = 0
KWA1 010934Z 04015KT 07/M00 A3015 RMK A01 T00711001  RH  060%=      5-min Rain = 0
KWA1 010935Z 04013KT 07/00 A3015 RMK A01 T007100-0  RH  060%=      5-min Rain = 0
KWA1 010936Z 04015G20KT 07/00 A3015 RMK A01 T00710000  RH  061%=      5-min Rain = 0
KWA1 010937Z 04016KT 07/00 A3014 RMK A01 T00710000  RH  061%=      5-min Rain = 0
KWA1 010938Z 04016KT 07/00 A3014 RMK A01 T00710001  RH  061%=      5-min Rain = 0
KWA1 010939Z 04020KT 07/00 A3014 RMK A01 T00710001  RH  061%=      5-min Rain = 0
KWA1 010940Z 04016KT 07/00 A3014 RMK A01 T00700001  RH  061%=      5-min Rain = 0
KWA1 010941Z 04018KT 07/00 A3014 RMK A01 T00700002  RH  062%=      5-min Rain = 0
KWA1 010942Z 04019KT 07/00 A3014 RMK A01 T00700002  RH  062%=      5-min Rain = 0
KWA1 010943Z 04019KT 07/00 A3014 RMK A01 T00700002  RH  062%=      5-min Rain = 0
KWA1 010944Z 04018KT 07/00 A3014 RMK A01 T00700003  RH  062%=      5-min Rain = 0
KWA1 010945Z 04017KT 07/00 A3013 RMK A01 T00690002  RH  062%=      5-min Rain = 0
KWA1 010946Z 04015KT 07/00 A3013 RMK A01 T00690003  RH  063%=      5-min Rain = 0
KWA1 010947Z 04016KT 07/00 A3013 RMK A01 T00690003  RH  063%=      5-min Rain = 0
KWA1 010948Z 04016KT 07/00 A3013 RMK A01 T00690003  RH  063%=      5-min Rain = 0
KWA1 010949Z 04018KT 07/00 A3013 RMK A01 T00690003  RH  063%=      5-min Rain = 0
KWA1 010950Z 04017KT 07/00 A3013 RMK A01 T00690003  RH  063%=      5-min Rain = 0
KWA1 010951Z 04017KT 07/00 A3013 RMK A01 T00690003  RH  063%=      5-min Rain = 0
KWA1 010952Z 05016KT 07/00 A3014 RMK A01 T00690004  RH  063%=      5-min Rain = 0
KWA1 010953Z 04013KT 07/00 A3014 RMK A01 T00690004  RH  063%=      5-min Rain = 0
KWA1 010954Z 04014KT 07/00 A3014 RMK A01 T00690004  RH  063%=      5-min Rain = 0
KWA1 010955Z 04013KT 07/00 A3014 RMK A01 T00690004  RH  063%=      5-min Rain = 0
KWA1 010956Z 05013KT 07/00 A3014 RMK A01 T00690004  RH  063%=      5-min Rain = 0
KWA1 010957Z 04014KT 07/00 A3014 RMK A01 T00690004  RH  063%=      5-min Rain = 0
KWA1 010958Z 05013KT 07/00 A3014 RMK A01 T00690004  RH  063%=      5-min Rain = 0
KWA1 010959Z 05013KT 07/00 A3014 RMK A01 T00690004  RH  063%=      5-min Rain = 0
KWA1 011000Z 04014KT 07/00 A3014 RMK A01 T00700004  RH  063%=      5-min Rain = 0
KWA1 011001Z 04013KT 07/00 A3014 RMK A01 T00700004  RH  063%=      5-min Rain = 0
KWA1 011002Z 05013KT 07/00 A3015 RMK A01 T00700004  RH  063%=      5-min Rain = 0
KWA1 011003Z 05012KT 07/00 A3015 RMK A01 T00700004  RH  063%=      5-min Rain = 0
KWA1 011004Z 05012KT 07/00 A3015 RMK A01 T00700004  RH  063%=      5-min Rain = 0
KWA1 011005Z 05011KT 07/00 A3015 RMK A01 T00700004  RH  063%=      5-min Rain = 0
KWA1 011006Z 06011KT 07/00 A3015 RMK A01 T00700004  RH  063%=      5-min Rain = 0
KWA1 011007Z 05011KT 07/01 A3015 RMK A01 T00710005  RH  063%=      5-min Rain = 0
KWA1 011008Z 06011KT 07/01 A3015 RMK A01 T00710005  RH  063%=      5-min Rain = 0
KWA1 011009Z 06012KT 07/01 A3015 RMK A01 T00710005  RH  063%=      5-min Rain = 0
KWA1 011010Z 05011KT 07/00 A3015 RMK A01 T00710004  RH  063%=      5-min Rain = 0
KWA1 011011Z 05012KT 07/01 A3015 RMK A01 T00710005  RH  063%=      5-min Rain = 0
KWA1 011012Z 05012KT 07/00 A3015 RMK A01 T00710004  RH  062%=      5-min Rain = 0
KWA1 011013Z 05013KT 07/00 A3015 RMK A01 T00720004  RH  062%=      5-min Rain = 0
KWA1 011014Z 05011KT 07/00 A3015 RMK A01 T00720004  RH  062%=      5-min Rain = 0
KWA1 011015Z 05011KT 07/01 A3015 RMK A01 T00720005  RH  062%=      5-min Rain = 0
KWA1 011016Z 05013KT 07/01 A3015 RMK A01 T00720005  RH  062%=      5-min Rain = 0
KWA1 011017Z 05012KT 07/01 A3015 RMK A01 T00720005  RH  062%=      5-min Rain = 0
KWA1 011018Z 05012KT 07/01 A3015 RMK A01 T00720005  RH  063%=      5-min Rain = 0
KWA1 011019Z 05011KT 07/01 A3015 RMK A01 T00720006  RH  063%=      5-min Rain = 0
KWA1 011020Z 05012KT 07/01 A3015 RMK A01 T00720006  RH  063%=      5-min Rain = 0
KWA1 011021Z 05014KT 07/01 A3015 RMK A01 T00720006  RH  063%=      5-min Rain = 0
KWA1 011022Z 06015KT 07/00 A3015 RMK A01 T00720004  RH  062%=      5-min Rain = 0
KWA1 011023Z 05015KT 07/00 A3015 RMK A01 T00730003  RH  061%=      5-min Rain = 0
KWA1 011024Z 05014KT 07/00 A3015 RMK A01 T00730003  RH  061%=      5-min Rain = 0
KWA1 011025Z 05017KT 07/00 A3015 RMK A01 T00730003  RH  061%=      5-min Rain = 0
KWA1 011026Z 05017KT 07/00 A3015 RMK A01 T00740002  RH  060%=      5-min Rain = 0
KWA1 011027Z 05014KT 07/00 A3015 RMK A01 T00740002  RH  060%=      5-min Rain = 0
KWA1 011028Z 05017KT 07/00 A3015 RMK A01 T00740003  RH  061%=      5-min Rain = 0
KWA1 011029Z 05015G20KT 07/00 A3015 RMK A01 T00740003  RH  061%=      5-min Rain = 0
KWA1 011030Z 05019KT 07/00 A3015 RMK A01 T00740003  RH  060%=      5-min Rain = 0
KWA1 011031Z 06018KT 07/00 A3015 RMK A01 T00740001  RH  060%=      5-min Rain = 0
KWA1 011032Z 05019KT 07/00 A3015 RMK A01 T00740002  RH  060%=      5-min Rain = 0
KWA1 011033Z 05018KT 07/00 A3015 RMK A01 T00740002  RH  060%=      5-min Rain = 0
KWA1 011034Z 05021KT 07/00 A3015 RMK A01 T00740002  RH  060%=      5-min Rain = 0
KWA1 011035Z 05021KT 07/00 A3015 RMK A01 T00740001  RH  060%=      5-min Rain = 0
KWA1 011036Z 05020KT 07/00 A3015 RMK A01 T00740002  RH  060%=      5-min Rain = 0
KWA1 011037Z 05017KT 07/00 A3015 RMK A01 T00730003  RH  061%=      5-min Rain = 0
KWA1 011038Z 05018KT 07/00 A3015 RMK A01 T00730003  RH  061%=      5-min Rain = 0
KWA1 011039Z 06018KT 07/00 A3014 RMK A01 T00730003  RH  061%=      5-min Rain = 0
KWA1 011040Z 05018G23KT 07/00 A3014 RMK A01 T00720003  RH  061%=      5-min Rain = 0
KWA1 011041Z 06021KT 07/00 A3014 RMK A01 T00730003  RH  061%=      5-min Rain = 0
KWA1 011042Z 06020KT 07/00 A3014 RMK A01 T00720003  RH  061%=      5-min Rain = 0
KWA1 011043Z 05018KT 07/00 A3014 RMK A01 T00720004  RH  062%=      5-min Rain = 0
KWA1 011044Z 05019KT 07/00 A3014 RMK A01 T00720004  RH  062%=      5-min Rain = 0
KWA1 011045Z 05019KT 07/00 A3014 RMK A01 T00720004  RH  062%=      5-min Rain = 0
KWA1 011046Z 06019KT 07/01 A3014 RMK A01 T00720005  RH  062%=      5-min Rain = 0
KWA1 011047Z 05017KT 07/00 A3014 RMK A01 T00710004  RH  062%=      5-min Rain = 0
KWA1 011048Z 06018KT 07/00 A3014 RMK A01 T00710004  RH  062%=      5-min Rain = 0
KWA1 011049Z 06017G22KT 07/00 A3014 RMK A01 T00710004  RH  062%=      5-min Rain = 0
KWA1 011050Z 06016KT 07/01 A3014 RMK A01 T00710005  RH  063%=      5-min Rain = 0
KWA1 011051Z 06014KT 07/01 A3014 RMK A01 T00710005  RH  063%=      5-min Rain = 0
KWA1 011052Z 07014KT 07/01 A3014 RMK A01 T00710005  RH  063%=      5-min Rain = 0
KWA1 011053Z 06012KT 07/01 A3014 RMK A01 T00700006  RH  063%=      5-min Rain = 0
KWA1 011054Z 07014KT 07/01 A3014 RMK A01 T00710006  RH  063%=      5-min Rain = 0
KWA1 011055Z 06016KT 07/01 A3015 RMK A01 T00710005  RH  063%=      5-min Rain = 0
KWA1 011056Z 07016KT 07/01 A3015 RMK A01 T00710005  RH  063%=      5-min Rain = 0
KWA1 011057Z 07015KT 07/01 A3015 RMK A01 T00710005  RH  063%=      5-min Rain = 0
KWA1 011058Z 07017KT 07/01 A3015 RMK A01 T00710005  RH  063%=      5-min Rain = 0
KWA1 011059Z 07016KT 07/01 A3015 RMK A01 T00710005  RH  063%=      5-min Rain = 0
KWA1 011100Z 06018KT 07/01 A3015 RMK A01 T00710005  RH  063%=      5-min Rain = 0
KWA1 011101Z 06016KT 07/00 A3015 RMK A01 T00710004  RH  063%=      5-min Rain = 0
KWA1 011102Z 07019KT 07/00 A3015 RMK A01 T00710004  RH  063%=      5-min Rain = 0
KWA1 011103Z 06018KT 07/00 A3015 RMK A01 T00710004  RH  063%=      5-min Rain = 0
KWA1 011104Z 07017KT 07/00 A3015 RMK A01 T00710004  RH  062%=      5-min Rain = 0
KWA1 011105Z 07015KT 07/00 A3015 RMK A01 T00710004  RH  063%=      5-min Rain = 0
KWA1 011106Z 07015G20KT 07/01 A3015 RMK A01 T00710005  RH  063%=      5-min Rain = 0
KWA1 011107Z 07017KT 07/01 A3015 RMK A01 T00710005  RH  063%=      5-min Rain = 0
KWA1 011108Z 07016KT 07/00 A3015 RMK A01 T00700004  RH  063%=      5-min Rain = 0
KWA1 011109Z 07018KT 07/00 A3015 RMK A01 T00710004  RH  063%=      5-min Rain = 0
KWA1 011110Z 07018G23KT 07/00 A3015 RMK A01 T00700004  RH  063%=      5-min Rain = 0
KWA1 011111Z 06018KT 07/00 A3015 RMK A01 T00700004  RH  063%=      5-min Rain = 0
KWA1 011112Z 07015KT 07/00 A3015 RMK A01 T00700004  RH  063%=      5-min Rain = 0
KWA1 011113Z 07016KT 07/00 A3015 RMK A01 T00700004  RH  063%=      5-min Rain = 0
KWA1 011114Z 06018KT 07/00 A3015 RMK A01 T00700004  RH  063%=      5-min Rain = 0
KWA1 011115Z 07016KT 07/00 A3015 RMK A01 T00700004  RH  063%=      5-min Rain = 0
KWA1 011116Z 07014KT 07/00 A3015 RMK A01 T00700004  RH  063%=      5-min Rain = 0
KWA1 011117Z 07017KT 07/01 A3015 RMK A01 T00700005  RH  063%=      5-min Rain = 0
KWA1 011118Z 07018KT 07/00 A3015 RMK A01 T00700004  RH  063%=      5-min Rain = 0
KWA1 011119Z 07014G19KT 07/01 A3015 RMK A01 T00690005  RH  063%=      5-min Rain = 0
KWA1 011120Z 07022KT 07/00 A3015 RMK A01 T00690004  RH  063%=      5-min Rain = 0
KWA1 011121Z 07022KT 07/00 A3015 RMK A01 T00690004  RH  063%=      5-min Rain = 0
KWA1 011122Z 06021G26KT 07/00 A3015 RMK A01 T00690003  RH  063%=      5-min Rain = 0
KWA1 011123Z 06017KT 07/00 A3015 RMK A01 T00690003  RH  063%=      5-min Rain = 0
KWA1 011124Z 07019KT 07/00 A3015 RMK A01 T00690004  RH  063%=      5-min Rain = 0
KWA1 011125Z 06020KT 07/00 A3015 RMK A01 T00690004  RH  063%=      5-min Rain = 0
KWA1 011126Z 07021KT 07/00 A3015 RMK A01 T00680003  RH  063%=      5-min Rain = 0
KWA1 011127Z 07022KT 07/00 A3015 RMK A01 T00680003  RH  063%=      5-min Rain = 0
KWA1 011128Z 07019KT 07/00 A3015 RMK A01 T00690003  RH  063%=      5-min Rain = 0
KWA1 011129Z 07023KT 07/00 A3016 RMK A01 T00690003  RH  063%=      5-min Rain = 0
KWA1 011130Z 07022KT 07/00 A3016 RMK A01 T00680003  RH  063%=      5-min Rain = 0
KWA1 011131Z 07020KT 07/00 A3016 RMK A01 T00680003  RH  063%=      5-min Rain = 0
KWA1 011132Z 07020KT 07/00 A3016 RMK A01 T00680003  RH  063%=      5-min Rain = 0
KWA1 011133Z 06020KT 07/00 A3016 RMK A01 T00680003  RH  063%=      5-min Rain = 0
KWA1 011134Z 06017KT 07/00 A3016 RMK A01 T00680004  RH  064%=      5-min Rain = 0
KWA1 011135Z 06018KT 07/00 A3016 RMK A01 T00670004  RH  064%=      5-min Rain = 0
KWA1 011136Z 06018KT 07/00 A3016 RMK A01 T00670004  RH  064%=      5-min Rain = 0
KWA1 011137Z 06015KT 07/01 A3016 RMK A01 T00670005  RH  064%=      5-min Rain = 0
KWA1 011138Z 07018KT 07/00 A3016 RMK A01 T00670004  RH  064%=      5-min Rain = 0
KWA1 011139Z 06018KT 07/00 A3016 RMK A01 T00670004  RH  064%=      5-min Rain = 0
KWA1 011140Z 06014KT 07/00 A3016 RMK A01 T00670004  RH  064%=      5-min Rain = 0
KWA1 011141Z 06016KT 07/01 A3016 RMK A01 T00670005  RH  064%=      5-min Rain = 0
KWA1 011142Z 06017KT 07/00 A3016 RMK A01 T00670004  RH  064%=      5-min Rain = 0
KWA1 011143Z 06016KT 07/00 A3016 RMK A01 T00670004  RH  064%=      5-min Rain = 0
KWA1 011144Z 06015KT 07/01 A3016 RMK A01 T00670005  RH  065%=      5-min Rain = 0
KWA1 011145Z 06014KT 07/01 A3016 RMK A01 T00670005  RH  065%=      5-min Rain = 0
KWA1 011146Z 06015KT 07/01 A3016 RMK A01 T00670005  RH  065%=      5-min Rain = 0
KWA1 011147Z 06017KT 07/01 A3016 RMK A01 T00670005  RH  064%=      5-min Rain = 0
KWA1 011148Z 06016KT 07/00 A3016 RMK A01 T00670004  RH  064%=      5-min Rain = 0
KWA1 011149Z 06016KT 07/01 A3016 RMK A01 T00670005  RH  064%=      5-min Rain = 0
KWA1 011150Z 06018KT 07/01 A3016 RMK A01 T00670005  RH  064%=      5-min Rain = 0
KWA1 011151Z 06016KT 07/00 A3016 RMK A01 T00670004  RH  064%=      5-min Rain = 0
KWA1 011152Z 07015KT 07/01 A3016 RMK A01 T00670005  RH  065%=      5-min Rain = 0
KWA1 011153Z 07017KT 07/01 A3016 RMK A01 T00670005  RH  065%=      5-min Rain = 0
KWA1 011154Z 07017KT 07/01 A3016 RMK A01 T00660005  RH  065%=      5-min Rain = 0
KWA1 011155Z 07016KT 07/01 A3017 RMK A01 T00660005  RH  065%=      5-min Rain = 0
KWA1 011156Z 06017KT 07/01 A3017 RMK A01 T00660005  RH  065%=      5-min Rain = 0
KWA1 011157Z 06018KT 07/01 A3017 RMK A01 T00660005  RH  065%=      5-min Rain = 0
KWA1 011158Z 06016KT 07/01 A3017 RMK A01 T00660005  RH  065%=      5-min Rain = 0
KWA1 011159Z 06014KT 07/01 A3017 RMK A01 T00660006  RH  065%=      5-min Rain = 0
KWA1 011200Z 06015KT 07/01 A3018 RMK A01 T00660006  RH  065%=      5-min Rain = 0
KWA1 011201Z 06015KT 07/01 A3018 RMK A01 T00660006  RH  065%=      5-min Rain = 0
KWA1 011202Z 06017KT 07/01 A3018 RMK A01 T00660005  RH  065%=      5-min Rain = 0
KWA1 011203Z 06017KT 07/01 A3018 RMK A01 T00660005  RH  065%=      5-min Rain = 0
KWA1 011204Z 06017KT 07/01 A3018 RMK A01 T00660005  RH  065%=      5-min Rain = 0
KWA1 011205Z 06017KT 07/01 A3018 RMK A01 T00660005  RH  065%=      5-min Rain = 0
KWA1 011206Z 06016KT 07/01 A3018 RMK A01 T00660005  RH  065%=      5-min Rain = 0
KWA1 011207Z 06014KT 07/01 A3018 RMK A01 T00660005  RH  065%=      5-min Rain = 0
KWA1 011208Z 06014G19KT 07/01 A3018 RMK A01 T00660006  RH  065%=      5-min Rain = 0
KWA1 011209Z 06018KT 07/01 A3018 RMK A01 T00660005  RH  065%=      5-min Rain = 0
KWA1 011210Z 06017KT 07/01 A3018 RMK A01 T00660005  RH  065%=      5-min Rain = 0
KWA1 011211Z 06017KT 07/01 A3018 RMK A01 T00660005  RH  065%=      5-min Rain = 0
KWA1 011212Z 06013KT 07/01 A3018 RMK A01 T00660005  RH  065%=      5-min Rain = 0
KWA1 011213Z 06016KT 07/01 A3018 RMK A01 T00660006  RH  065%=      5-min Rain = 0
KWA1 011214Z 06014KT 07/01 A3018 RMK A01 T00650005  RH  065%=      5-min Rain = 0
KWA1 011215Z 05014KT 07/01 A3019 RMK A01 T00650005  RH  066%=      5-min Rain = 0
KWA1 011216Z 06015KT 07/01 A3019 RMK A01 T00650005  RH  066%=      5-min Rain = 0
KWA1 011217Z 06013KT 07/01 A3019 RMK A01 T00650006  RH  066%=      5-min Rain = 0
KWA1 011218Z 06013KT 07/01 A3019 RMK A01 T00650006  RH  066%=      5-min Rain = 0
KWA1 011219Z 06015KT 07/01 A3019 RMK A01 T00650006  RH  066%=      5-min Rain = 0
KWA1 011220Z 06014KT 07/01 A3019 RMK A01 T00650006  RH  066%=      5-min Rain = 0
KWA1 011221Z 07015KT 07/01 A3019 RMK A01 T00650006  RH  066%=      5-min Rain = 0
KWA1 011222Z 07013KT 07/01 A3019 RMK A01 T00650006  RH  066%=      5-min Rain = 0
KWA1 011223Z 07015KT 07/01 A302 RMK A01 T00650006  RH  066%=      5-min Rain = 0
KWA1 011224Z 06014KT 06/01 A302 RMK A01 T00640006  RH  066%=      5-min Rain = 0
KWA1 011225Z 06012KT 07/01 A302 RMK A01 T00650006  RH  066%=      5-min Rain = 0
KWA1 011226Z 06011KT 07/01 A302 RMK A01 T00650006  RH  066%=      5-min Rain = 0
KWA1 011227Z 06012KT 07/01 A302 RMK A01 T00650006  RH  066%=      5-min Rain = 0
KWA1 011228Z 06012KT 07/01 A302 RMK A01 T00650006  RH  066%=      5-min Rain = 0
KWA1 011229Z 06013KT 07/01 A302 RMK A01 T00650006  RH  066%=      5-min Rain = 0
KWA1 011230Z 06010KT 07/01 A302 RMK A01 T00650006  RH  066%=      5-min Rain = 0
KWA1 011231Z 06010KT 06/01 A302 RMK A01 T00640007  RH  067%=      5-min Rain = 0
KWA1 011232Z 06013KT 06/01 A302 RMK A01 T00640006  RH  067%=      5-min Rain = 0
KWA1 011233Z 06012KT 06/01 A302 RMK A01 T00640006  RH  067%=      5-min Rain = 0
KWA1 011234Z 06012KT 06/01 A3021 RMK A01 T00640006  RH  067%=      5-min Rain = 0
KWA1 011235Z 05011KT 06/01 A3021 RMK A01 T00640006  RH  066%=      5-min Rain = 0
KWA1 011236Z 05013KT 06/01 A3021 RMK A01 T00640006  RH  066%=      5-min Rain = 0
KWA1 011237Z 06012KT 06/01 A3021 RMK A01 T00640006  RH  066%=      5-min Rain = 0
KWA1 011238Z 05014KT 06/01 A3021 RMK A01 T00640006  RH  066%=      5-min Rain = 0
KWA1 011239Z 05014KT 06/01 A3021 RMK A01 T00640006  RH  066%=      5-min Rain = 0
KWA1 011240Z 06012KT 06/01 A3021 RMK A01 T00640006  RH  066%=      5-min Rain = 0
KWA1 011241Z 06013KT 06/01 A3021 RMK A01 T00640006  RH  066%=      5-min Rain = 0
KWA1 011242Z 06013KT 06/01 A3021 RMK A01 T00640006  RH  066%=      5-min Rain = 0
KWA1 011243Z 06012KT 06/01 A3021 RMK A01 T00640006  RH  066%=      5-min Rain = 0
KWA1 011244Z 06012KT 06/01 A3021 RMK A01 T00640006  RH  066%=      5-min Rain = 0
KWA1 011245Z 06013KT 06/01 A3021 RMK A01 T00640006  RH  066%=      5-min Rain = 0
KWA1 011246Z 06012KT 06/01 A3022 RMK A01 T00640006  RH  066%=      5-min Rain = 0
KWA1 011247Z 06012KT 06/01 A3022 RMK A01 T00640006  RH  066%=      5-min Rain = 0
KWA1 011248Z 06012KT 06/01 A3022 RMK A01 T00640005  RH  066%=      5-min Rain = 0
KWA1 011249Z 06012KT 06/01 A3022 RMK A01 T00640005  RH  066%=      5-min Rain = 0
KWA1 011250Z 06011KT 06/01 A3022 RMK A01 T00640006  RH  066%=      5-min Rain = 0
KWA1 011251Z 05011KT 06/01 A3022 RMK A01 T00640006  RH  066%=      5-min Rain = 0
KWA1 011252Z 05012KT 06/01 A3022 RMK A01 T00640006  RH  066%=      5-min Rain = 0
KWA1 011253Z 05011KT 06/01 A3022 RMK A01 T00640006  RH  066%=      5-min Rain = 0
KWA1 011254Z 06012KT 06/01 A3022 RMK A01 T00640006  RH  066%=      5-min Rain = 0
KWA1 011255Z 05011KT 06/01 A3022 RMK A01 T00640006  RH  066%=      5-min Rain = 0
KWA1 011256Z 05012KT 06/01 A3022 RMK A01 T00640006  RH  066%=      5-min Rain = 0
KWA1 011257Z 05012KT 07/01 A3022 RMK A01 T00650006  RH  066%=      5-min Rain = 0
KWA1 011258Z 05010KT 07/01 A3022 RMK A01 T00650006  RH  066%=      5-min Rain = 0
KWA1 011259Z 05010KT 07/01 A3022 RMK A01 T00650007  RH  066%=      5-min Rain = 0
KWA1 011300Z 05010KT 07/01 A3022 RMK A01 T00650007  RH  066%=      5-min Rain = 0
KWA1 011301Z 05010KT 07/01 A3022 RMK A01 T00650006  RH  066%=      5-min Rain = 0
KWA1 011302Z 05009KT 07/01 A3022 RMK A01 T00650006  RH  066%=      5-min Rain = 0
KWA1 011303Z 05009KT 07/01 A3022 RMK A01 T00650006  RH  066%=      5-min Rain = 0
KWA1 011304Z 05008KT 07/01 A3022 RMK A01 T00650006  RH  066%=      5-min Rain = 0
KWA1 011305Z 04012KT 07/01 A3023 RMK A01 T00650006  RH  066%=      5-min Rain = 0
KWA1 011306Z 04011KT 07/01 A3023 RMK A01 T00650006  RH  066%=      5-min Rain = 0
KWA1 011307Z 04013KT 07/01 A3023 RMK A01 T00650005  RH  066%=      5-min Rain = 0
KWA1 011308Z 04014KT 07/01 A3023 RMK A01 T00650005  RH  065%=      5-min Rain = 0
KWA1 011309Z 04013KT 07/01 A3023 RMK A01 T00650005  RH  065%=      5-min Rain = 0
KWA1 011310Z 04013KT 07/01 A3023 RMK A01 T00650005  RH  065%=      5-min Rain = 0
KWA1 011311Z 03011KT 07/01 A3023 RMK A01 T00650005  RH  065%=      5-min Rain = 0
KWA1 011312Z 03011KT 07/01 A3023 RMK A01 T00650005  RH  065%=      5-min Rain = 0
KWA1 011313Z 03012KT 07/01 A3023 RMK A01 T00650005  RH  065%=      5-min Rain = 0
KWA1 011314Z 03011KT 07/01 A3023 RMK A01 T00650005  RH  065%=      5-min Rain = 0
KWA1 011315Z 03011KT 07/01 A3023 RMK A01 T00650005  RH  065%=      5-min Rain = 0
KWA1 011316Z 03011KT 07/00 A3023 RMK A01 T00650004  RH  065%=      5-min Rain = 0
KWA1 011317Z 03011KT 07/00 A3024 RMK A01 T00650003  RH  065%=      5-min Rain = 0
KWA1 011318Z 04010KT 07/00 A3024 RMK A01 T00650003  RH  065%=      5-min Rain = 0
KWA1 011319Z 03009KT 07/00 A3024 RMK A01 T00650003  RH  065%=      5-min Rain = 0
KWA1 011320Z 04010KT 07/00 A3024 RMK A01 T00650003  RH  065%=      5-min Rain = 0
KWA1 011321Z 04011KT 07/00 A3024 RMK A01 T00650003  RH  065%=      5-min Rain = 0
KWA1 011322Z 04011KT 07/00 A3024 RMK A01 T00650002  RH  064%=      5-min Rain = 0
KWA1 011323Z 03010KT 07/00 A3024 RMK A01 T00650002  RH  064%=      5-min Rain = 0
KWA1 011324Z 04010KT 07/00 A3024 RMK A01 T00650003  RH  065%=      5-min Rain = 0
KWA1 011325Z 03011KT 07/00 A3024 RMK A01 T00650003  RH  065%=      5-min Rain = 0
KWA1 011326Z 03013KT 07/00 A3024 RMK A01 T00650002  RH  064%=      5-min Rain = 0
KWA1 011327Z 03013KT 07/00 A3024 RMK A01 T00650002  RH  064%=      5-min Rain = 0
KWA1 011328Z 03015KT 07/00 A3024 RMK A01 T00650001  RH  064%=      5-min Rain = 0
KWA1 011329Z 04015KT 07/00 A3024 RMK A01 T00650000  RH  063%=      5-min Rain = 0
KWA1 011330Z 04012KT 07/00 A3024 RMK A01 T00650000  RH  063%=      5-min Rain = 0
KWA1 011331Z 04014KT 07/00 A3024 RMK A01 T00650001  RH  063%=      5-min Rain = 0
KWA1 011332Z 04012KT 07/00 A3024 RMK A01 T006500-0  RH  063%=      5-min Rain = 0
KWA1 011333Z 04011KT 07/00 A3025 RMK A01 T006500-0  RH  063%=      5-min Rain = 0
KWA1 011334Z 04011KT 07/00 A3025 RMK A01 T00650000  RH  063%=      5-min Rain = 0
KWA1 011335Z 04011KT 07/00 A3025 RMK A01 T00650001  RH  063%=      5-min Rain = 0
KWA1 011336Z 04012KT 07/00 A3025 RMK A01 T00650000  RH  063%=      5-min Rain = 0
KWA1 011337Z 03011KT 07/00 A3025 RMK A01 T00650000  RH  063%=      5-min Rain = 0
KWA1 011338Z 03010KT 07/00 A3026 RMK A01 T00650000  RH  063%=      5-min Rain = 0
KWA1 011339Z 03011KT 07/00 A3026 RMK A01 T00650001  RH  063%=      5-min Rain = 0
KWA1 011340Z 03011KT 07/00 A3026 RMK A01 T00650001  RH  063%=      5-min Rain = 0
KWA1 011341Z 03012KT 07/00 A3026 RMK A01 T00650001  RH  063%=      5-min Rain = 0
KWA1 011342Z 03012KT 07/00 A3026 RMK A01 T00650000  RH  063%=      5-min Rain = 0
KWA1 011343Z 03012KT 07/00 A3026 RMK A01 T00650001  RH  063%=      5-min Rain = 0
KWA1 011344Z 03012KT 07/00 A3026 RMK A01 T00650000  RH  063%=      5-min Rain = 0
KWA1 011345Z 04014KT 07/00 A3026 RMK A01 T00650000  RH  063%=      5-min Rain = 0
KWA1 011346Z 03012KT 07/00 A3026 RMK A01 T00650001  RH  063%=      5-min Rain = 0
KWA1 011347Z 04014KT 07/00 A3026 RMK A01 T00650001  RH  064%=      5-min Rain = 0
KWA1 011348Z 03015KT 07/00 A3025 RMK A01 T00650001  RH  063%=      5-min Rain = 0
KWA1 011349Z 03013KT 07/00 A3025 RMK A01 T00650001  RH  063%=      5-min Rain = 0
KWA1 011350Z 04013KT 07/00 A3025 RMK A01 T00650001  RH  064%=      5-min Rain = 0
KWA1 011351Z 04014KT 07/00 A3026 RMK A01 T00650001  RH  064%=      5-min Rain = 0
KWA1 011352Z 03013KT 07/00 A3026 RMK A01 T00650001  RH  063%=      5-min Rain = 0
KWA1 011353Z 04012KT 07/00 A3026 RMK A01 T00650001  RH  063%=      5-min Rain = 0
KWA1 011354Z 04012KT 07/00 A3026 RMK A01 T00650001  RH  064%=      5-min Rain = 0
KWA1 011355Z 04012KT 07/00 A3026 RMK A01 T00650001  RH  064%=      5-min Rain = 0
KWA1 011356Z 04013KT 07/00 A3026 RMK A01 T00650001  RH  064%=      5-min Rain = 0
KWA1 011357Z 04013KT 07/00 A3026 RMK A01 T00650001  RH  063%=      5-min Rain = 0
KWA1 011358Z 04012KT 07/00 A3026 RMK A01 T00650001  RH  064%=      5-min Rain = 0
KWA1 011359Z 04014KT 07/00 A3026 RMK A01 T00660001  RH  063%=      5-min Rain = 0
KWA1 011400Z 04013KT 07/00 A3026 RMK A01 T00660001  RH  063%=      5-min Rain = 0
KWA1 011401Z 05013KT 07/00 A3026 RMK A01 T00650001  RH  064%=      5-min Rain = 0
KWA1 011402Z 05014KT 07/00 A3026 RMK A01 T00660001  RH  063%=      5-min Rain = 0
KWA1 011403Z 05013KT 07/00 A3026 RMK A01 T00660001  RH  063%=      5-min Rain = 0
KWA1 011404Z 05010KT 07/00 A3026 RMK A01 T00660002  RH  064%=      5-min Rain = 0
KWA1 011405Z 05013KT 07/00 A3026 RMK A01 T00660002  RH  064%=      5-min Rain = 0
KWA1 011406Z 05013KT 07/00 A3026 RMK A01 T00660001  RH  063%=      5-min Rain = 0
KWA1 011407Z 05013KT 07/00 A3026 RMK A01 T00660001  RH  063%=      5-min Rain = 0
KWA1 011408Z 05012KT 07/00 A3026 RMK A01 T00660001  RH  063%=      5-min Rain = 0
KWA1 011409Z 05012KT 07/00 A3026 RMK A01 T00660002  RH  064%=      5-min Rain = 0
KWA1 011410Z 05012KT 07/00 A3026 RMK A01 T00660002  RH  064%=      5-min Rain = 0
KWA1 011411Z 05012KT 07/00 A3025 RMK A01 T00660002  RH  064%=      5-min Rain = 0
KWA1 011412Z 05014KT 07/00 A3025 RMK A01 T00660002  RH  064%=      5-min Rain = 0
KWA1 011413Z 05013KT 07/00 A3025 RMK A01 T00660003  RH  064%=      5-min Rain = 0
KWA1 011414Z 05012KT 07/00 A3025 RMK A01 T00670003  RH  064%=      5-min Rain = 0
KWA1 011415Z 06014KT 07/00 A3025 RMK A01 T00670004  RH  064%=      5-min Rain = 0
KWA1 011416Z 06014KT 07/00 A3025 RMK A01 T00670003  RH  064%=      5-min Rain = 0
KWA1 011417Z 05015KT 07/00 A3025 RMK A01 T00670003  RH  064%=      5-min Rain = 0
KWA1 011418Z 05012KT 07/00 A3025 RMK A01 T00680004  RH  064%=      5-min Rain = 0
KWA1 011419Z 05012KT 07/00 A3025 RMK A01 T00670004  RH  064%=      5-min Rain = 0
KWA1 011420Z 05011KT 07/00 A3025 RMK A01 T00680004  RH  064%=      5-min Rain = 0
KWA1 011421Z 05010KT 07/00 A3026 RMK A01 T00680004  RH  064%=      5-min Rain = 0
KWA1 011422Z 05010KT 07/01 A3026 RMK A01 T00680005  RH  064%=      5-min Rain = 0
KWA1 011423Z 05011KT 07/01 A3026 RMK A01 T00690005  RH  064%=      5-min Rain = 0
KWA1 011424Z 05009KT 07/01 A3027 RMK A01 T00680005  RH  064%=      5-min Rain = 0
KWA1 011425Z 05009KT 07/00 A3027 RMK A01 T00680004  RH  064%=      5-min Rain = 0
KWA1 011426Z 04009KT 07/00 A3027 RMK A01 T00680004  RH  064%=      5-min Rain = 0
KWA1 011427Z 05009KT 07/00 A3027 RMK A01 T00680003  RH  063%=      5-min Rain = 0
KWA1 011428Z 05008KT 07/00 A3027 RMK A01 T00680004  RH  063%=      5-min Rain = 0
KWA1 011429Z 05008KT 07/01 A3027 RMK A01 T00680005  RH  064%=      5-min Rain = 0
KWA1 011430Z 05009KT 07/00 A3027 RMK A01 T00680004  RH  064%=      5-min Rain = 0
KWA1 011431Z 05009KT 07/00 A3027 RMK A01 T00680004  RH  064%=      5-min Rain = 0
KWA1 011432Z 06011KT 07/00 A3027 RMK A01 T00690004  RH  063%=      5-min Rain = 0
KWA1 011433Z 05011KT 07/00 A3027 RMK A01 T00680003  RH  063%=      5-min Rain = 0
KWA1 011434Z 05011KT 07/00 A3026 RMK A01 T00680003  RH  063%=      5-min Rain = 0
KWA1 011435Z 05013KT 07/00 A3026 RMK A01 T00680004  RH  064%=      5-min Rain = 0
KWA1 011436Z 05013KT 07/00 A3026 RMK A01 T00680004  RH  064%=      5-min Rain = 0
KWA1 011437Z 05013KT 07/00 A3026 RMK A01 T00680003  RH  063%=      5-min Rain = 0
KWA1 011438Z 05014KT 07/00 A3026 RMK A01 T00680004  RH  064%=      5-min Rain = 0
KWA1 011439Z 06015KT 07/00 A3026 RMK A01 T00680003  RH  063%=      5-min Rain = 0
KWA1 011440Z 06014KT 07/00 A3026 RMK A01 T00690004  RH  063%=      5-min Rain = 0
KWA1 011441Z 06014KT 07/00 A3026 RMK A01 T00690004  RH  063%=      5-min Rain = 0
KWA1 011442Z 06015KT 07/00 A3026 RMK A01 T00690004  RH  063%=      5-min Rain = 0
KWA1 011443Z 05015KT 07/00 A3026 RMK A01 T00690004  RH  063%=      5-min Rain = 0
KWA1 011444Z 06012KT 07/00 A3026 RMK A01 T00690004  RH  063%=      5-min Rain = 0
KWA1 011445Z 06013KT 07/01 A3026 RMK A01 T00690005  RH  064%=      5-min Rain = 0
KWA1 011446Z 06012KT 07/01 A3026 RMK A01 T00700005  RH  063%=      5-min Rain = 0
KWA1 011447Z 06012KT 07/01 A3026 RMK A01 T00700005  RH  064%=      5-min Rain = 0
KWA1 011448Z 05012KT 07/01 A3027 RMK A01 T00700005  RH  064%=      5-min Rain = 0
KWA1 011449Z 05012KT 07/01 A3027 RMK A01 T00700005  RH  063%=      5-min Rain = 0
KWA1 011450Z 05012KT 07/01 A3027 RMK A01 T00700005  RH  063%=      5-min Rain = 0
KWA1 011451Z 05011KT 07/01 A3027 RMK A01 T00700006  RH  063%=      5-min Rain = 0
KWA1 011452Z 05012KT 07/01 A3027 RMK A01 T00710005  RH  063%=      5-min Rain = 0
KWA1 011453Z 05014KT 07/01 A3027 RMK A01 T00710005  RH  063%=      5-min Rain = 0
KWA1 011454Z 05013KT 07/01 A3027 RMK A01 T00710005  RH  063%=      5-min Rain = 0
KWA1 011455Z 05011KT 07/01 A3027 RMK A01 T00710005  RH  063%=      5-min Rain = 0
KWA1 011456Z 05011KT 07/01 A3027 RMK A01 T00710006  RH  063%=      5-min Rain = 0
KWA1 011457Z 05011KT 07/01 A3027 RMK A01 T00720006  RH  063%=      5-min Rain = 0
KWA1 011458Z 05012KT 07/01 A3027 RMK A01 T00730007  RH  063%=      5-min Rain = 0
KWA1 011459Z 05012KT 07/01 A3028 RMK A01 T00730006  RH  062%=      5-min Rain = 0
KWA1 011500Z 05011KT 07/01 A3028 RMK A01 T00730007  RH  063%=      5-min Rain = 0
KWA1 011501Z 06011KT 07/01 A3028 RMK A01 T00730006  RH  062%=      5-min Rain = 0
KWA1 011502Z 06013KT 07/01 A3028 RMK A01 T00730006  RH  062%=      5-min Rain = 0
KWA1 011503Z 05010KT 07/01 A3028 RMK A01 T00740006  RH  062%=      5-min Rain = 0
KWA1 011504Z 04010KT 08/01 A3028 RMK A01 T00750007  RH  062%=      5-min Rain = 0
KWA1 011505Z 04010KT 08/01 A3028 RMK A01 T00750006  RH  061%=      5-min Rain = 0
KWA1 011506Z 05010KT 08/01 A3028 RMK A01 T00750006  RH  062%=      5-min Rain = 0
KWA1 011507Z 05010KT 08/01 A3028 RMK A01 T00750007  RH  062%=      5-min Rain = 0
KWA1 011508Z 05010KT 08/01 A3028 RMK A01 T00760008  RH  062%=      5-min Rain = 0
KWA1 011509Z 04011KT 08/01 A3028 RMK A01 T00760007  RH  062%=      5-min Rain = 0
KWA1 011510Z 04010KT 08/01 A3028 RMK A01 T00760007  RH  062%=      5-min Rain = 0
KWA1 011511Z 04011KT 08/01 A3028 RMK A01 T00760007  RH  062%=      5-min Rain = 0
KWA1 011512Z 03013KT 08/01 A3028 RMK A01 T00770007  RH  061%=      5-min Rain = 0
KWA1 011513Z 03014KT 08/01 A3028 RMK A01 T00770006  RH  061%=      5-min Rain = 0
KWA1 011514Z 04014KT 08/01 A3028 RMK A01 T00760006  RH  061%=      5-min Rain = 0
KWA1 011515Z 03013KT 08/01 A3028 RMK A01 T00760006  RH  061%=      5-min Rain = 0
KWA1 011516Z 03013KT 08/01 A3028 RMK A01 T00760006  RH  061%=      5-min Rain = 0
KWA1 011517Z 04012KT 08/01 A3028 RMK A01 T00770006  RH  061%=      5-min Rain = 0
KWA1 011518Z 04015KT 08/01 A3028 RMK A01 T00770007  RH  061%=      5-min Rain = 0
KWA1 011519Z 04014KT 08/01 A3028 RMK A01 T00760006  RH  061%=      5-min Rain = 0
KWA1 011520Z 03012KT 08/01 A3028 RMK A01 T00770006  RH  061%=      5-min Rain = 0
KWA1 011521Z 03012KT 08/01 A3028 RMK A01 T00770007  RH  061%=      5-min Rain = 0
KWA1 011522Z 02012KT 08/01 A3028 RMK A01 T00780007  RH  061%=      5-min Rain = 0
KWA1 011523Z 03014KT 08/01 A3029 RMK A01 T00790008  RH  061%=      5-min Rain = 0
KWA1 011524Z 03012KT 08/01 A3029 RMK A01 T00800007  RH  060%=      5-min Rain = 0
KWA1 011525Z 03011KT 08/01 A3029 RMK A01 T00800008  RH  060%=      5-min Rain = 0
KWA1 011526Z 03011KT 08/01 A3029 RMK A01 T00810007  RH  060%=      5-min Rain = 0
KWA1 011527Z 03011KT 08/01 A3029 RMK A01 T00800006  RH  060%=      5-min Rain = 0
KWA1 011528Z 03010KT 08/01 A3029 RMK A01 T00800008  RH  060%=      5-min Rain = 0
KWA1 011529Z 03011G16KT 08/01 A3029 RMK A01 T00810008  RH  060%=      5-min Rain = 0
KWA1 011530Z 03013KT 08/01 A303 RMK A01 T00810007  RH  059%=      5-min Rain = 0
KWA1 011531Z 03012KT 08/01 A303 RMK A01 T00810006  RH  059%=      5-min Rain = 0
KWA1 011532Z 03012KT 08/01 A303 RMK A01 T00810006  RH  059%=      5-min Rain = 0
KWA1 011533Z 03012G18KT 08/01 A303 RMK A01 T00810007  RH  060%=      5-min Rain = 0
KWA1 011534Z 02014KT 08/01 A303 RMK A01 T00820007  RH  059%=      5-min Rain = 0
KWA1 011535Z 03012KT 08/01 A303 RMK A01 T00830007  RH  059%=      5-min Rain = 0
KWA1 011536Z 02012KT 08/01 A303 RMK A01 T00840007  RH  059%=      5-min Rain = 0
KWA1 011537Z 02014KT 08/01 A303 RMK A01 T00840008  RH  059%=      5-min Rain = 0
KWA1 011538Z 03014KT 08/01 A303 RMK A01 T00840007  RH  059%=      5-min Rain = 0
KWA1 011539Z 01012KT 08/01 A303 RMK A01 T00830007  RH  059%=      5-min Rain = 0
KWA1 011540Z 01011KT 08/01 A303 RMK A01 T00830011  RH  061%=      5-min Rain = 0
KWA1 011541Z 01014KT 08/01 A303 RMK A01 T00820011  RH  061%=      5-min Rain = 0
KWA1 011542Z 01013KT 08/01 A303 RMK A01 T00810010  RH  061%=      5-min Rain = 0
KWA1 011543Z 01014KT 08/01 A303 RMK A01 T00810012  RH  062%=      5-min Rain = 0
KWA1 011544Z 01015KT 08/01 A303 RMK A01 T00810009  RH  060%=      5-min Rain = 0
KWA1 011545Z 00014KT 08/01 A303 RMK A01 T00800009  RH  061%=      5-min Rain = 0
KWA1 011546Z 00014KT 08/01 A303 RMK A01 T00800010  RH  061%=      5-min Rain = 0
KWA1 011547Z 36015KT 08/01 A303 RMK A01 T00800011  RH  062%=      5-min Rain = 0
KWA1 011548Z 00014KT 08/01 A303 RMK A01 T00800012  RH  062%=      5-min Rain = 0
KWA1 011549Z 01014KT 08/01 A303 RMK A01 T00790012  RH  062%=      5-min Rain = 0
KWA1 011550Z 01016KT 08/01 A3031 RMK A01 T00800011  RH  062%=      5-min Rain = 0
KWA1 011551Z 00015KT 08/01 A3031 RMK A01 T00790010  RH  062%=      5-min Rain = 0
KWA1 011552Z 01016KT 08/01 A3031 RMK A01 T00790009  RH  061%=      5-min Rain = 0
KWA1 011553Z 01016KT 08/01 A3031 RMK A01 T00780009  RH  061%=      5-min Rain = 0
KWA1 011554Z 01015KT 08/01 A3031 RMK A01 T00790009  RH  061%=      5-min Rain = 0
KWA1 011555Z 00015KT 08/01 A303 RMK A01 T00780010  RH  062%=      5-min Rain = 0
KWA1 011556Z 00014KT 08/01 A303 RMK A01 T00790011  RH  062%=      5-min Rain = 0
KWA1 011557Z 02016KT 08/01 A303 RMK A01 T00810012  RH  062%=      5-min Rain = 0
KWA1 011558Z 02015KT 08/01 A3031 RMK A01 T00810011  RH  061%=      5-min Rain = 0
KWA1 011559Z 01016KT 08/01 A303 RMK A01 T00800011  RH  062%=      5-min Rain = 0
KWA1 011600Z 00016KT 08/01 A303 RMK A01 T00800012  RH  062%=      5-min Rain = 0
KWA1 011601Z 01016KT 08/01 A303 RMK A01 T00800013  RH  062%=      5-min Rain = 0
KWA1 011602Z 01016KT 08/01 A3031 RMK A01 T00810012  RH  062%=      5-min Rain = 0
KWA1 011603Z 01013KT 08/01 A3031 RMK A01 T00800011  RH  062%=      5-min Rain = 0
KWA1 011604Z 01013KT 08/01 A3031 RMK A01 T00800013  RH  063%=      5-min Rain = 0
KWA1 011605Z 01016KT 08/01 A303 RMK A01 T00820014  RH  062%=      5-min Rain = 0
KWA1 011606Z 02016KT 08/01 A303 RMK A01 T00820013  RH  062%=      5-min Rain = 0
KWA1 011607Z 01017KT 08/01 A3031 RMK A01 T00820013  RH  062%=      5-min Rain = 0
KWA1 011608Z 02016KT 08/01 A303 RMK A01 T00810012  RH  062%=      5-min Rain = 0
KWA1 011609Z 01015KT 08/01 A3031 RMK A01 T00810012  RH  062%=      5-min Rain = 0
KWA1 011610Z 01016KT 08/01 A3031 RMK A01 T00800012  RH  062%=      5-min Rain = 0
KWA1 011611Z 02016KT 08/01 A3031 RMK A01 T00800012  RH  062%=      5-min Rain = 0
KWA1 011612Z 01017KT 08/01 A3031 RMK A01 T00800013  RH  063%=      5-min Rain = 0
KWA1 011613Z 01018KT 08/01 A3031 RMK A01 T00800013  RH  063%=      5-min Rain = 0
KWA1 011614Z 01016KT 08/01 A3031 RMK A01 T00790014  RH  063%=      5-min Rain = 0
KWA1 011615Z 01017KT 08/01 A3031 RMK A01 T00800014  RH  063%=      5-min Rain = 0
KWA1 011616Z 02016KT 08/02 A3031 RMK A01 T00810016  RH  063%=      5-min Rain = 0
KWA1 011617Z 02016KT 08/02 A3031 RMK A01 T00830015  RH  062%=      5-min Rain = 0
KWA1 011618Z 03016KT 08/01 A3031 RMK A01 T00820014  RH  062%=      5-min Rain = 0
KWA1 011619Z 03017KT 08/01 A3031 RMK A01 T00820013  RH  062%=      5-min Rain = 0
KWA1 011620Z 03016KT 08/01 A3031 RMK A01 T00810011  RH  061%=      5-min Rain = 0
KWA1 011621Z 02015KT 08/01 A3031 RMK A01 T00810013  RH  062%=      5-min Rain = 0
KWA1 011622Z 02014KT 08/01 A3031 RMK A01 T00820013  RH  062%=      5-min Rain = 0
KWA1 011623Z 02013KT 08/02 A3031 RMK A01 T00820015  RH  063%=      5-min Rain = 0
KWA1 011624Z 02014KT 09/02 A3031 RMK A01 T00850017  RH  062%=      5-min Rain = 0
KWA1 011625Z 03015KT 09/02 A3031 RMK A01 T00860016  RH  061%=      5-min Rain = 0
KWA1 011626Z 03014KT 09/01 A3031 RMK A01 T00850014  RH  061%=      5-min Rain = 0
KWA1 011627Z 02014KT 08/02 A3031 RMK A01 T00840016  RH  062%=      5-min Rain = 0
KWA1 011628Z 02014KT 08/02 A3031 RMK A01 T00840018  RH  063%=      5-min Rain = 0
KWA1 011629Z 01016KT 08/02 A3031 RMK A01 T00840020  RH  064%=      5-min Rain = 0
KWA1 011630Z 01016KT 08/02 A3031 RMK A01 T00840020  RH  064%=      5-min Rain = 0
KWA1 011631Z 01015KT 08/02 A3031 RMK A01 T00840019  RH  064%=      5-min Rain = 0
KWA1 011632Z 02015KT 08/02 A3031 RMK A01 T00840019  RH  064%=      5-min Rain = 0
KWA1 011633Z 02015KT 08/02 A3031 RMK A01 T00840020  RH  064%=      5-min Rain = 0
KWA1 011634Z 01015KT 09/02 A3031 RMK A01 T00860022  RH  064%=      5-min Rain = 0
KWA1 011635Z 02013KT 09/02 A3031 RMK A01 T00870023  RH  064%=      5-min Rain = 0
KWA1 011636Z 03016KT 09/02 A3031 RMK A01 T00880023  RH  064%=      5-min Rain = 0
KWA1 011637Z 03017KT 09/02 A3031 RMK A01 T00870022  RH  064%=      5-min Rain = 0
KWA1 011638Z 03017KT 09/02 A3031 RMK A01 T00870023  RH  064%=      5-min Rain = 0
KWA1 011639Z 02013KT 09/02 A3031 RMK A01 T00890023  RH  063%=      5-min Rain = 0
KWA1 011640Z 02014KT 09/02 A3031 RMK A01 T00880024  RH  064%=      5-min Rain = 0
KWA1 011641Z 02013KT 09/02 A3031 RMK A01 T00890024  RH  064%=      5-min Rain = 0
KWA1 011642Z 01014KT 09/02 A3031 RMK A01 T00850024  RH  065%=      5-min Rain = 0
KWA1 011643Z 02012G17KT 09/03 A3031 RMK A01 T00880027  RH  065%=      5-min Rain = 0
KWA1 011644Z 02014KT 09/02 A3031 RMK A01 T00920024  RH  063%=      5-min Rain = 0
KWA1 011645Z 01016KT 09/03 A3031 RMK A01 T00920026  RH  064%=      5-min Rain = 0
KWA1 011646Z 01012KT 09/02 A3031 RMK A01 T00910024  RH  063%=      5-min Rain = 0
KWA1 011647Z 01014KT 09/02 A3031 RMK A01 T00870023  RH  064%=      5-min Rain = 0
KWA1 011648Z 02014KT 09/02 A3031 RMK A01 T00870023  RH  064%=      5-min Rain = 0
KWA1 011649Z 02014KT 09/02 A3031 RMK A01 T00850023  RH  065%=      5-min Rain = 0
KWA1 011650Z 01014KT 09/03 A3031 RMK A01 T00860025  RH  065%=      5-min Rain = 0
KWA1 011651Z 01014KT 09/02 A3031 RMK A01 T00860023  RH  065%=      5-min Rain = 0
KWA1 011652Z 01013KT 09/03 A3031 RMK A01 T00860025  RH  065%=      5-min Rain = 0
KWA1 011653Z 00013KT 09/03 A3031 RMK A01 T00890027  RH  065%=      5-min Rain = 0
KWA1 011654Z 36015KT 09/03 A3031 RMK A01 T00900025  RH  064%=      5-min Rain = 0
KWA1 011655Z 02016KT 09/02 A3032 RMK A01 T00890024  RH  064%=      5-min Rain = 0
KWA1 011656Z 01013KT 09/02 A3032 RMK A01 T00890022  RH  063%=      5-min Rain = 0
KWA1 011657Z 00014KT 09/02 A3032 RMK A01 T00880023  RH  064%=      5-min Rain = 0
KWA1 011658Z 01014KT 09/02 A3032 RMK A01 T00860024  RH  065%=      5-min Rain = 0
KWA1 011659Z 01013KT 09/02 A3032 RMK A01 T00860023  RH  064%=      5-min Rain = 0
KWA1 011700Z 01012KT 09/02 A3032 RMK A01 T00870023  RH  064%=      5-min Rain = 0
KWA1 011701Z 01012KT 09/02 A3032 RMK A01 T00880023  RH  064%=      5-min Rain = 0
KWA1 011702Z 00012G18KT 09/02 A3032 RMK A01 T00880023  RH  064%=      5-min Rain = 0
KWA1 011703Z 02014KT 09/02 A3032 RMK A01 T00880023  RH  063%=      5-min Rain = 0
KWA1 011704Z 02012KT 09/02 A3032 RMK A01 T00890022  RH  063%=      5-min Rain = 0
KWA1 011705Z 02012KT 09/02 A3032 RMK A01 T00870021  RH  063%=      5-min Rain = 0
KWA1 011706Z 01015KT 09/02 A3032 RMK A01 T00860022  RH  064%=      5-min Rain = 0
KWA1 011707Z 01014KT 09/02 A3032 RMK A01 T00860021  RH  064%=      5-min Rain = 0
KWA1 011708Z 02013KT 09/02 A3032 RMK A01 T00860020  RH  063%=      5-min Rain = 0
KWA1 011709Z 02014KT 09/02 A3032 RMK A01 T00870021  RH  063%=      5-min Rain = 0
KWA1 011710Z 02014KT 09/02 A3032 RMK A01 T00880022  RH  063%=      5-min Rain = 0
KWA1 011711Z 03013KT 09/02 A3032 RMK A01 T00890020  RH  062%=      5-min Rain = 0
KWA1 011712Z 02013KT 09/02 A3032 RMK A01 T00880020  RH  062%=      5-min Rain = 0
KWA1 011713Z 01015KT 09/02 A3032 RMK A01 T00890020  RH  062%=      5-min Rain = 0
KWA1 011714Z 01014KT 09/02 A3032 RMK A01 T00890020  RH  062%=      5-min Rain = 0
KWA1 011715Z 01011KT 09/02 A3032 RMK A01 T00870019  RH  062%=      5-min Rain = 0
KWA1 011716Z 03011KT 09/02 A3032 RMK A01 T00880021  RH  063%=      5-min Rain = 0
KWA1 011717Z 02013KT 09/02 A3032 RMK A01 T00900020  RH  062%=      5-min Rain = 0
KWA1 011718Z 02014KT 09/02 A3032 RMK A01 T00900021  RH  062%=      5-min Rain = 0
KWA1 011719Z 02013KT 09/02 A3032 RMK A01 T00890017  RH  061%=      5-min Rain = 0
KWA1 011720Z 02013KT 09/02 A3032 RMK A01 T00860019  RH  062%=      5-min Rain = 0
KWA1 011721Z 02014KT 09/02 A3032 RMK A01 T00870020  RH  063%=      5-min Rain = 0
KWA1 011722Z 01011KT 09/02 A3032 RMK A01 T00870019  RH  062%=      5-min Rain = 0
KWA1 011723Z 02012KT 09/02 A3032 RMK A01 T00850019  RH  063%=      5-min Rain = 0
KWA1 011724Z 02013KT 09/02 A3032 RMK A01 T00860020  RH  063%=      5-min Rain = 0
KWA1 011725Z 00011KT 09/02 A3032 RMK A01 T00880021  RH  063%=      5-min Rain = 0
KWA1 011726Z 01010KT 09/02 A3032 RMK A01 T00890022  RH  063%=      5-min Rain = 0
KWA1 011727Z 01012KT 09/03 A3032 RMK A01 T00910025  RH  063%=      5-min Rain = 0
KWA1 011728Z 01011KT 09/02 A3032 RMK A01 T00920022  RH  062%=      5-min Rain = 0
KWA1 011729Z 03013KT 09/02 A3032 RMK A01 T00910022  RH  062%=      5-min Rain = 0
KWA1 011730Z 02011KT 09/02 A3032 RMK A01 T00900021  RH  062%=      5-min Rain = 0
KWA1 011731Z 02013KT 09/02 A3032 RMK A01 T00900022  RH  062%=      5-min Rain = 0
KWA1 011732Z 02014KT 09/02 A3033 RMK A01 T00910022  RH  062%=      5-min Rain = 0
KWA1 011733Z 02009KT 09/02 A3033 RMK A01 T00900020  RH  061%=      5-min Rain = 0
KWA1 011734Z 01011KT 09/02 A3032 RMK A01 T00880020  RH  062%=      5-min Rain = 0
KWA1 011735Z 01013KT 09/02 A3032 RMK A01 T00880020  RH  062%=      5-min Rain = 0
KWA1 011736Z 01014KT 09/02 A3032 RMK A01 T00880019  RH  062%=      5-min Rain = 0
KWA1 011737Z 01012KT 09/02 A3032 RMK A01 T00880020  RH  062%=      5-min Rain = 0
KWA1 011738Z 00014KT 09/02 A3032 RMK A01 T00880020  RH  062%=      5-min Rain = 0
KWA1 011739Z 36012KT 09/02 A3032 RMK A01 T00890020  RH  062%=      5-min Rain = 0
KWA1 011740Z 03012KT 09/02 A3032 RMK A01 T00890020  RH  062%=      5-min Rain = 0
KWA1 011741Z 02013KT 09/02 A3032 RMK A01 T00900020  RH  062%=      5-min Rain = 0
KWA1 011742Z 02011KT 09/02 A3032 RMK A01 T00900019  RH  061%=      5-min Rain = 0
KWA1 011743Z 02009KT 09/02 A3032 RMK A01 T00880018  RH  062%=      5-min Rain = 0
KWA1 011744Z 01010KT 09/02 A3032 RMK A01 T00870018  RH  062%=      5-min Rain = 0
KWA1 011745Z 02013KT 09/02 A3033 RMK A01 T00870019  RH  062%=      5-min Rain = 0
KWA1 011746Z 01011KT 09/02 A3033 RMK A01 T00860017  RH  062%=      5-min Rain = 0
KWA1 011747Z 35011KT 09/02 A3033 RMK A01 T00850018  RH  063%=      5-min Rain = 0
KWA1 011748Z 36012KT 09/02 A3033 RMK A01 T00850018  RH  063%=      5-min Rain = 0
KWA1 011749Z 01013KT 09/02 A3033 RMK A01 T00860020  RH  063%=      5-min Rain = 0
KWA1 011750Z 02013KT 09/02 A3033 RMK A01 T00870019  RH  062%=      5-min Rain = 0
KWA1 011751Z 01013KT 09/02 A3033 RMK A01 T00870019  RH  062%=      5-min Rain = 0
KWA1 011752Z 01010KT 09/02 A3033 RMK A01 T00880019  RH  062%=      5-min Rain = 0
KWA1 011753Z 02011KT 09/02 A3033 RMK A01 T00890020  RH  062%=      5-min Rain = 0
KWA1 011754Z 02014KT 09/02 A3033 RMK A01 T00900021  RH  062%=      5-min Rain = 0
KWA1 011755Z 02012KT 09/02 A3033 RMK A01 T00910021  RH  061%=      5-min Rain = 0
KWA1 011756Z 01014KT 09/02 A3033 RMK A01 T00910020  RH  061%=      5-min Rain = 0
KWA1 011757Z 01012KT 09/02 A3033 RMK A01 T00920021  RH  061%=      5-min Rain = 0
KWA1 011758Z 36010KT 09/02 A3033 RMK A01 T00930019  RH  060%=      5-min Rain = 0
KWA1 011759Z 02010KT 09/02 A3033 RMK A01 T00910020  RH  061%=      5-min Rain = 0
KWA1 011800Z 02013KT 09/02 A3033 RMK A01 T00920021  RH  061%=      5-min Rain = 0
KWA1 011801Z 02016KT 10/02 A3033 RMK A01 T00950023  RH  061%=      5-min Rain = 0
KWA1 011802Z 02014KT 09/02 A3033 RMK A01 T00940020  RH  060%=      5-min Rain = 0
KWA1 011803Z 02011KT 09/02 A3033 RMK A01 T00920019  RH  060%=      5-min Rain = 0
KWA1 011804Z 01010KT 09/02 A3033 RMK A01 T00900018  RH  061%=      5-min Rain = 0
KWA1 011805Z 00012KT 09/02 A3033 RMK A01 T00910020  RH  061%=      5-min Rain = 0
KWA1 011806Z 03013KT 09/02 A3033 RMK A01 T00920020  RH  061%=      5-min Rain = 0
KWA1 011807Z 01011KT 09/02 A3033 RMK A01 T00930020  RH  060%=      5-min Rain = 0
KWA1 011808Z 01010KT 09/02 A3033 RMK A01 T00920019  RH  060%=      5-min Rain = 0
KWA1 011809Z 00013KT 09/02 A3033 RMK A01 T00920020  RH  060%=      5-min Rain = 0
KWA1 011810Z 01013KT 09/02 A3033 RMK A01 T00930022  RH  061%=      5-min Rain = 0
KWA1 011811Z 36012KT 10/02 A3033 RMK A01 T00950023  RH  061%=      5-min Rain = 0
KWA1 011812Z 36012KT 10/02 A3033 RMK A01 T00970023  RH  060%=      5-min Rain = 0
KWA1 011813Z 03011KT 10/02 A3033 RMK A01 T00950021  RH  060%=      5-min Rain = 0
KWA1 011814Z 03011KT 10/02 A3033 RMK A01 T00960021  RH  060%=      5-min Rain = 0
KWA1 011815Z 02012KT 10/02 A3033 RMK A01 T00980020  RH  059%=      5-min Rain = 0
KWA1 011816Z 02009KT 09/02 A3033 RMK A01 T00940016  RH  058%=      5-min Rain = 0
KWA1 011817Z 00014KT 09/02 A3033 RMK A01 T00930020  RH  060%=      5-min Rain = 0
KWA1 011818Z 36013KT 10/02 A3033 RMK A01 T00960021  RH  059%=      5-min Rain = 0
KWA1 011819Z 35010KT 09/02 A3033 RMK A01 T00940019  RH  059%=      5-min Rain = 0
KWA1 011820Z 01014KT 09/02 A3033 RMK A01 T00930021  RH  060%=      5-min Rain = 0
KWA1 011821Z 01012KT 09/02 A3033 RMK A01 T00940020  RH  060%=      5-min Rain = 0
KWA1 011822Z 36011KT 10/02 A3033 RMK A01 T00950021  RH  060%=      5-min Rain = 0
KWA1 011823Z 36011G16KT 09/02 A3033 RMK A01 T00920017  RH  060%=      5-min Rain = 0
KWA1 011824Z 01013KT 09/02 A3033 RMK A01 T00920019  RH  061%=      5-min Rain = 0
KWA1 011825Z 01015KT 10/02 A3033 RMK A01 T00970021  RH  059%=      5-min Rain = 0
KWA1 011826Z 01014KT 10/02 A3033 RMK A01 T00980019  RH  058%=      5-min Rain = 0
KWA1 011827Z 02011KT 10/02 A3033 RMK A01 T00950017  RH  058%=      5-min Rain = 0
KWA1 011828Z 01014KT 09/02 A3033 RMK A01 T00940019  RH  059%=      5-min Rain = 0
KWA1 011829Z 01013KT 09/02 A3033 RMK A01 T00940018  RH  059%=      5-min Rain = 0
KWA1 011830Z 00012KT 09/02 A3033 RMK A01 T00920019  RH  060%=      5-min Rain = 0
KWA1 011831Z 35011KT 09/02 A3033 RMK A01 T00920017  RH  060%=      5-min Rain = 0
KWA1 011832Z 35012KT 09/02 A3033 RMK A01 T00910019  RH  061%=      5-min Rain = 0
KWA1 011833Z 36014KT 09/02 A3033 RMK A01 T00930020  RH  060%=      5-min Rain = 0
KWA1 011834Z 00013KT 09/02 A3033 RMK A01 T00930018  RH  060%=      5-min Rain = 0
KWA1 011835Z 01014KT 09/02 A3033 RMK A01 T00910019  RH  060%=      5-min Rain = 0
KWA1 011836Z 01010KT 09/02 A3033 RMK A01 T00940019  RH  060%=      5-min Rain = 0
KWA1 011837Z 01009KT 09/02 A3033 RMK A01 T00940018  RH  059%=      5-min Rain = 0
KWA1 011838Z 01013KT 10/02 A3033 RMK A01 T00950018  RH  059%=      5-min Rain = 0
KWA1 011839Z 00013KT 10/02 A3033 RMK A01 T00950018  RH  059%=      5-min Rain = 0
KWA1 011840Z 36011KT 09/02 A3033 RMK A01 T00920016  RH  059%=      5-min Rain = 0
KWA1 011841Z 02014KT 09/02 A3033 RMK A01 T00900016  RH  060%=      5-min Rain = 0
KWA1 011842Z 02015KT 09/02 A3033 RMK A01 T00910016  RH  059%=      5-min Rain = 0
KWA1 011843Z 03012KT 09/02 A3033 RMK A01 T00910016  RH  059%=      5-min Rain = 0
KWA1 011844Z 03010KT 09/02 A3033 RMK A01 T00900015  RH  059%=      5-min Rain = 0
KWA1 011845Z 02010KT 09/02 A3033 RMK A01 T00890016  RH  060%=      5-min Rain = 0
KWA1 011846Z 01011KT 09/02 A3033 RMK A01 T00900016  RH  060%=      5-min Rain = 0
KWA1 011847Z 35013KT 09/02 A3033 RMK A01 T00900016  RH  060%=      5-min Rain = 0
KWA1 011848Z 35013KT 09/02 A3033 RMK A01 T00900016  RH  059%=      5-min Rain = 0
KWA1 011849Z 35011KT 09/02 A3033 RMK A01 T00910015  RH  059%=      5-min Rain = 0
KWA1 011850Z 00013KT 09/02 A3033 RMK A01 T00900015  RH  059%=      5-min Rain = 0
KWA1 011851Z 02012KT 09/02 A3033 RMK A01 T00910016  RH  059%=      5-min Rain = 0
KWA1 011852Z 03010KT 09/01 A3033 RMK A01 T00930014  RH  058%=      5-min Rain = 0
KWA1 011853Z 02011KT 09/01 A3033 RMK A01 T00910013  RH  058%=      5-min Rain = 0
KWA1 011854Z 02011G16KT 09/01 A3033 RMK A01 T00890012  RH  058%=      5-min Rain = 0
KWA1 011855Z 01015KT 09/01 A3033 RMK A01 T00910014  RH  059%=      5-min Rain = 0
KWA1 011856Z 01012KT 09/01 A3033 RMK A01 T00930013  RH  058%=      5-min Rain = 0
KWA1 011857Z 02012KT 09/01 A3033 RMK A01 T00920013  RH  057%=      5-min Rain = 0
KWA1 011858Z 01008KT 09/01 A3033 RMK A01 T00930013  RH  057%=      5-min Rain = 0
KWA1 011859Z 02013KT 09/01 A3033 RMK A01 T00940014  RH  057%=      5-min Rain = 0
KWA1 011900Z 01012KT 09/01 A3033 RMK A01 T00940013  RH  057%=      5-min Rain = 0
KWA1 011901Z 01011KT 09/01 A3033 RMK A01 T00940013  RH  057%=      5-min Rain = 0
KWA1 011902Z 01011KT 09/01 A3033 RMK A01 T00930012  RH  057%=      5-min Rain = 0
KWA1 011903Z 00010KT 09/01 A3033 RMK A01 T00930012  RH  057%=      5-min Rain = 0
KWA1 011904Z 36010KT 09/01 A3033 RMK A01 T00930013  RH  057%=      5-min Rain = 0
KWA1 011905Z 01010KT 09/01 A3033 RMK A01 T00940014  RH  057%=      5-min Rain = 0
KWA1 011906Z 02012KT 10/02 A3033 RMK A01 T00970015  RH  056%=      5-min Rain = 0
KWA1 011907Z 01011KT 10/01 A3033 RMK A01 T00960012  RH  056%=      5-min Rain = 0
KWA1 011908Z 01014KT 09/01 A3033 RMK A01 T00940012  RH  056%=      5-min Rain = 0
KWA1 011909Z 01012KT 09/01 A3033 RMK A01 T00940012  RH  056%=      5-min Rain = 0
KWA1 011910Z 01011KT 10/01 A3033 RMK A01 T00950012  RH  056%=      5-min Rain = 0
KWA1 011911Z 02010KT 10/01 A3033 RMK A01 T00960013  RH  056%=      5-min Rain = 0
KWA1 011912Z 01011KT 10/01 A3033 RMK A01 T00970014  RH  056%=      5-min Rain = 0
KWA1 011913Z 02013KT 10/01 A3033 RMK A01 T00970013  RH  055%=      5-min Rain = 0
KWA1 011914Z 03013KT 10/01 A3033 RMK A01 T00980013  RH  055%=      5-min Rain = 0
KWA1 011915Z 03011KT 10/01 A3033 RMK A01 T00970012  RH  055%=      5-min Rain = 0
KWA1 011916Z 03013KT 10/01 A3033 RMK A01 T00970013  RH  056%=      5-min Rain = 0
KWA1 011917Z 03013KT 10/01 A3033 RMK A01 T00980012  RH  055%=      5-min Rain = 0
KWA1 011918Z 03010KT 10/01 A3032 RMK A01 T00980013  RH  055%=      5-min Rain = 0
KWA1 011919Z 03010KT 10/01 A3032 RMK A01 T00990014  RH  055%=      5-min Rain = 0
KWA1 011920Z 03012KT 10/01 A3032 RMK A01 T01010014  RH  055%=      5-min Rain = 0
KWA1 011921Z 03011KT 10/01 A3032 RMK A01 T01010013  RH  054%=      5-min Rain = 0
KWA1 011922Z 03012KT 10/02 A3032 RMK A01 T01010015  RH  055%=      5-min Rain = 0
KWA1 011923Z 03012KT 10/01 A3032 RMK A01 T01030013  RH  054%=      5-min Rain = 0
KWA1 011924Z 03012KT 10/01 A3032 RMK A01 T01010013  RH  055%=      5-min Rain = 0
KWA1 011925Z 02013KT 10/02 A3032 RMK A01 T01030015  RH  054%=      5-min Rain = 0
KWA1 011926Z 02011KT 10/01 A3032 RMK A01 T01040014  RH  054%=      5-min Rain = 0
KWA1 011927Z 36013KT 10/01 A3032 RMK A01 T01030013  RH  054%=      5-min Rain = 0
KWA1 011928Z 36012KT 10/01 A3032 RMK A01 T01030014  RH  054%=      5-min Rain = 0
KWA1 011929Z 00012KT 10/01 A3032 RMK A01 T01030013  RH  054%=      5-min Rain = 0
KWA1 011930Z 00013KT 10/01 A3032 RMK A01 T01020013  RH  054%=      5-min Rain = 0
KWA1 011931Z 36012KT 10/01 A3032 RMK A01 T01020013  RH  054%=      5-min Rain = 0
KWA1 011932Z 00010KT 10/01 A3032 RMK A01 T01020012  RH  054%=      5-min Rain = 0
KWA1 011933Z 01011G16KT 10/01 A3032 RMK A01 T01020013  RH  054%=      5-min Rain = 0
KWA1 011934Z 02015KT 10/01 A3032 RMK A01 T01030013  RH  054%=      5-min Rain = 0
KWA1 011935Z 02014KT 11/01 A3032 RMK A01 T01050014  RH  053%=      5-min Rain = 0
KWA1 011936Z 03012KT 11/01 A3032 RMK A01 T01050013  RH  053%=      5-min Rain = 0
KWA1 011937Z 04013G18KT 11/01 A3031 RMK A01 T01050013  RH  053%=      5-min Rain = 0
KWA1 011938Z 02014KT 11/01 A3032 RMK A01 T01050014  RH  054%=      5-min Rain = 0
KWA1 011939Z 01013KT 10/01 A3032 RMK A01 T01020012  RH  053%=      5-min Rain = 0
KWA1 011940Z 01010KT 10/01 A3031 RMK A01 T01000011  RH  054%=      5-min Rain = 0
KWA1 011941Z 02013KT 10/01 A3032 RMK A01 T00990013  RH  055%=      5-min Rain = 0
KWA1 011942Z 03013KT 10/01 A3032 RMK A01 T01010014  RH  055%=      5-min Rain = 0
KWA1 011943Z 02014G19KT 10/01 A3032 RMK A01 T01020014  RH  054%=      5-min Rain = 0
KWA1 011944Z 01013KT 10/01 A3032 RMK A01 T01020014  RH  054%=      5-min Rain = 0
KWA1 011945Z 01013KT 10/01 A3032 RMK A01 T01010014  RH  054%=      5-min Rain = 0
KWA1 011946Z 02012KT 10/01 A3032 RMK A01 T01010014  RH  055%=      5-min Rain = 0
KWA1 011947Z 01010G15KT 10/02 A3032 RMK A01 T01020015  RH  055%=      5-min Rain = 0
KWA1 011948Z 01011KT 10/02 A3032 RMK A01 T01020015  RH  054%=      5-min Rain = 0
KWA1 011949Z 01011KT 10/02 A3032 RMK A01 T01030015  RH  054%=      5-min Rain = 0
KWA1 011950Z 36010KT 10/02 A3032 RMK A01 T01040016  RH  054%=      5-min Rain = 0
KWA1 011951Z 36009KT 10/02 A3032 RMK A01 T01030015  RH  054%=      5-min Rain = 0
KWA1 011952Z 02010KT 10/02 A3032 RMK A01 T01030017  RH  055%=      5-min Rain = 0
KWA1 011953Z 03011KT 10/02 A3032 RMK A01 T01030016  RH  055%=      5-min Rain = 0
KWA1 011954Z 03008KT 10/02 A3032 RMK A01 T01030015  RH  054%=      5-min Rain = 0
KWA1 011955Z 03008KT 10/01 A3032 RMK A01 T01010014  RH  055%=      5-min Rain = 0
KWA1 011956Z 02012KT 10/02 A3032 RMK A01 T01010015  RH  055%=      5-min Rain = 0
KWA1 011957Z 03012KT 10/02 A3032 RMK A01 T01020015  RH  055%=      5-min Rain = 0
KWA1 011958Z 03010KT 10/02 A3032 RMK A01 T01020016  RH  055%=      5-min Rain = 0
KWA1 011959Z 02012KT 11/02 A3032 RMK A01 T01050015  RH  054%=      5-min Rain = 0
KWA1 012000Z 02009KT 10/01 A3032 RMK A01 T01030013  RH  054%=      5-min Rain = 0
KWA1 012001Z 01008KT 10/01 A3032 RMK A01 T01020014  RH  055%=      5-min Rain = 0
KWA1 012002Z 35009KT 10/02 A3032 RMK A01 T01020015  RH  055%=      5-min Rain = 0
KWA1 012003Z 01009KT 10/02 A3032 RMK A01 T01020015  RH  055%=      5-min Rain = 0
KWA1 012004Z 02010KT 10/02 A3032 RMK A01 T01020015  RH  055%=      5-min Rain = 0
KWA1 012005Z 01012KT 10/02 A3032 RMK A01 T01020016  RH  055%=      5-min Rain = 0
KWA1 012006Z 01011KT 10/02 A3032 RMK A01 T01030016  RH  055%=      5-min Rain = 0
KWA1 012007Z 01011KT 10/02 A3031 RMK A01 T01020016  RH  055%=      5-min Rain = 0
KWA1 012008Z 02012KT 10/02 A3031 RMK A01 T01040018  RH  055%=      5-min Rain = 0
KWA1 012009Z 01010KT 10/02 A3031 RMK A01 T01040015  RH  054%=      5-min Rain = 0
KWA1 012010Z 01013KT 10/02 A3031 RMK A01 T01030016  RH  055%=      5-min Rain = 0
KWA1 012011Z 02012KT 11/02 A3031 RMK A01 T01050018  RH  055%=      5-min Rain = 0
KWA1 012012Z 02013KT 11/02 A3031 RMK A01 T01070017  RH  054%=      5-min Rain = 0
KWA1 012013Z 02012KT 11/02 A3031 RMK A01 T01070017  RH  054%=      5-min Rain = 0
KWA1 012014Z 02012KT 11/02 A3031 RMK A01 T01060016  RH  054%=      5-min Rain = 0
KWA1 012015Z 02014KT 11/02 A3031 RMK A01 T01060016  RH  054%=      5-min Rain = 0
KWA1 012016Z 01010KT 11/02 A3031 RMK A01 T01060017  RH  054%=      5-min Rain = 0
KWA1 012017Z 01010KT 11/02 A3031 RMK A01 T01070018  RH  054%=      5-min Rain = 0
KWA1 012018Z 00012KT 11/02 A3031 RMK A01 T01090017  RH  053%=      5-min Rain = 0
KWA1 012019Z 02013KT 11/02 A3031 RMK A01 T01080016  RH  053%=      5-min Rain = 0
KWA1 012020Z 01012KT 11/01 A3031 RMK A01 T01050014  RH  053%=      5-min Rain = 0
KWA1 012021Z 02010KT 10/02 A3031 RMK A01 T01040015  RH  054%=      5-min Rain = 0
KWA1 012022Z 01013KT 11/02 A3031 RMK A01 T01060016  RH  054%=      5-min Rain = 0
KWA1 012023Z 00013KT 11/02 A303 RMK A01 T01060016  RH  054%=      5-min Rain = 0
KWA1 012024Z 01012KT 11/02 A303 RMK A01 T01060017  RH  054%=      5-min Rain = 0
KWA1 012025Z 01013KT 11/02 A303 RMK A01 T01070016  RH  054%=      5-min Rain = 0
KWA1 012026Z 36011KT 11/02 A303 RMK A01 T01070018  RH  054%=      5-min Rain = 0
KWA1 012027Z 36014KT 11/02 A303 RMK A01 T01080017  RH  053%=      5-min Rain = 0
KWA1 012028Z 01013KT 11/02 A303 RMK A01 T01080018  RH  054%=      5-min Rain = 0
KWA1 012029Z 00011KT 11/02 A303 RMK A01 T01070016  RH  053%=      5-min Rain = 0
KWA1 012030Z 00012KT 11/02 A303 RMK A01 T01070017  RH  054%=      5-min Rain = 0
KWA1 012031Z 36013KT 11/02 A303 RMK A01 T01070017  RH  054%=      5-min Rain = 0
KWA1 012032Z 36012KT 11/02 A303 RMK A01 T01050016  RH  054%=      5-min Rain = 0
KWA1 012033Z 01014KT 11/02 A3031 RMK A01 T01060017  RH  054%=      5-min Rain = 0
KWA1 012034Z 36015KT 11/02 A3031 RMK A01 T01060016  RH  054%=      5-min Rain = 0
KWA1 012035Z 35014KT 11/02 A3031 RMK A01 T01050016  RH  054%=      5-min Rain = 0
KWA1 012036Z 35013KT 11/02 A3031 RMK A01 T01070017  RH  054%=      5-min Rain = 0
KWA1 012037Z 36013KT 11/02 A3031 RMK A01 T01080018  RH  054%=      5-min Rain = 0
KWA1 012038Z 00014KT 11/02 A3031 RMK A01 T01080017  RH  054%=      5-min Rain = 0
KWA1 012039Z 00016KT 11/02 A3031 RMK A01 T01080019  RH  054%=      5-min Rain = 0
KWA1 012040Z 00016KT 11/02 A3031 RMK A01 T01090016  RH  053%=      5-min Rain = 0
KWA1 012041Z 00014KT 11/02 A3031 RMK A01 T01070015  RH  053%=      5-min Rain = 0
KWA1 012042Z 00014KT 11/02 A3031 RMK A01 T01070015  RH  053%=      5-min Rain = 0
KWA1 012043Z 01010KT 11/02 A3031 RMK A01 T01080015  RH  053%=      5-min Rain = 0
KWA1 012044Z 36009KT 11/02 A3031 RMK A01 T01080015  RH  052%=      5-min Rain = 0
KWA1 012045Z 35011KT 11/02 A3031 RMK A01 T01070016  RH  053%=      5-min Rain = 0
KWA1 012046Z 35009KT 11/02 A3031 RMK A01 T01070016  RH  053%=      5-min Rain = 0
KWA1 012047Z 35010KT 11/02 A3031 RMK A01 T01080016  RH  053%=      5-min Rain = 0
KWA1 012048Z 35009KT 11/02 A303 RMK A01 T01080015  RH  053%=      5-min Rain = 0
KWA1 012049Z 35008KT 11/02 A303 RMK A01 T01070015  RH  053%=      5-min Rain = 0
KWA1 012050Z 01009KT 11/02 A303 RMK A01 T01080018  RH  054%=      5-min Rain = 0
KWA1 012051Z 01011KT 11/02 A3031 RMK A01 T01120019  RH  053%=      5-min Rain = 0
KWA1 012052Z 01013KT 11/02 A3031 RMK A01 T01130017  RH  052%=      5-min Rain = 0
KWA1 012053Z 35011KT 11/02 A3031 RMK A01 T01100015  RH  052%=      5-min Rain = 0
KWA1 012054Z 36010KT 11/02 A303 RMK A01 T01090016  RH  052%=      5-min Rain = 0
KWA1 012055Z 36009KT 11/02 A3031 RMK A01 T01090015  RH  052%=      5-min Rain = 0
KWA1 012056Z 36009KT 11/02 A3031 RMK A01 T01090016  RH  053%=      5-min Rain = 0
KWA1 012057Z 01009KT 11/02 A3031 RMK A01 T01100017  RH  053%=      5-min Rain = 0
KWA1 012058Z 02010KT 11/02 A3031 RMK A01 T01120016  RH  052%=      5-min Rain = 0
KWA1 012059Z 03011KT 11/01 A3031 RMK A01 T01130014  RH  051%=      5-min Rain = 0
KWA1 012100Z 02012KT 11/01 A3031 RMK A01 T01130014  RH  051%=      5-min Rain = 0
KWA1 012101Z 02011KT 11/01 A3031 RMK A01 T01130013  RH  050%=      5-min Rain = 0
KWA1 012102Z 02010KT 11/01 A3031 RMK A01 T01120014  RH  051%=      5-min Rain = 0
KWA1 012103Z 01012KT 11/01 A3031 RMK A01 T01120014  RH  051%=      5-min Rain = 0
KWA1 012104Z 02010KT 11/01 A3031 RMK A01 T01120014  RH  051%=      5-min Rain = 0
KWA1 012105Z 02009KT 11/01 A3031 RMK A01 T01120014  RH  051%=      5-min Rain = 0
KWA1 012106Z 02009KT 11/01 A3031 RMK A01 T01120014  RH  051%=      5-min Rain = 0
KWA1 012107Z 01009KT 11/01 A303 RMK A01 T01130014  RH  051%=      5-min Rain = 0
KWA1 012108Z 02010KT 11/01 A303 RMK A01 T01130014  RH  051%=      5-min Rain = 0
KWA1 012109Z 02011KT 11/02 A303 RMK A01 T01130015  RH  051%=      5-min Rain = 0
KWA1 012110Z 03009KT 11/01 A303 RMK A01 T01130013  RH  050%=      5-min Rain = 0
KWA1 012111Z 03010KT 11/02 A303 RMK A01 T01140015  RH  051%=      5-min Rain = 0
KWA1 012112Z 03010KT 12/02 A303 RMK A01 T01150015  RH  050%=      5-min Rain = 0
KWA1 012113Z 03009KT 12/01 A303 RMK A01 T01160014  RH  049%=      5-min Rain = 0
KWA1 012114Z 04009KT 12/01 A303 RMK A01 T01150014  RH  050%=      5-min Rain = 0
KWA1 012115Z 04012KT 12/02 A303 RMK A01 T01170016  RH  050%=      5-min Rain = 0
KWA1 012116Z 02012KT 12/01 A303 RMK A01 T01180014  RH  049%=      5-min Rain = 0
KWA1 012117Z 01012KT 12/01 A303 RMK A01 T01170014  RH  049%=      5-min Rain = 0
KWA1 012118Z 01009G15KT 12/01 A303 RMK A01 T01160014  RH  049%=      5-min Rain = 0
KWA1 012119Z 02012KT 12/01 A303 RMK A01 T01150014  RH  050%=      5-min Rain = 0
KWA1 012120Z 01012KT 11/01 A303 RMK A01 T01140014  RH  050%=      5-min Rain = 0
KWA1 012121Z 01008KT 11/01 A303 RMK A01 T01140013  RH  050%=      5-min Rain = 0
KWA1 012122Z 36009KT 12/02 A303 RMK A01 T01150015  RH  050%=      5-min Rain = 0
KWA1 012123Z 01010KT 12/02 A303 RMK A01 T01170016  RH  050%=      5-min Rain = 0
KWA1 012124Z 01012KT 12/02 A303 RMK A01 T01170015  RH  050%=      5-min Rain = 0
KWA1 012125Z 00009KT 12/01 A303 RMK A01 T01160014  RH  049%=      5-min Rain = 0
KWA1 012126Z 36009KT 11/02 A303 RMK A01 T01140015  RH  050%=      5-min Rain = 0
KWA1 012127Z 35010KT 12/02 A303 RMK A01 T01160015  RH  050%=      5-min Rain = 0
KWA1 012128Z 35009KT 12/02 A303 RMK A01 T01160015  RH  050%=      5-min Rain = 0
KWA1 012129Z 35008KT 12/01 A303 RMK A01 T01160014  RH  049%=      5-min Rain = 0
KWA1 012130Z 00010KT 12/02 A303 RMK A01 T01150015  RH  050%=      5-min Rain = 0
KWA1 012131Z 36011KT 12/02 A303 RMK A01 T01160015  RH  050%=      5-min Rain = 0
KWA1 012132Z 00010KT 12/01 A303 RMK A01 T01170014  RH  049%=      5-min Rain = 0
KWA1 012133Z 01008KT 12/02 A303 RMK A01 T01170015  RH  049%=      5-min Rain = 0
KWA1 012134Z 02008KT 12/01 A303 RMK A01 T01180014  RH  049%=      5-min Rain = 0
KWA1 012135Z 36008KT 12/01 A303 RMK A01 T01180014  RH  049%=      5-min Rain = 0
KWA1 012136Z 01011KT 12/02 A303 RMK A01 T01190015  RH  049%=      5-min Rain = 0
KWA1 012137Z 02011KT 12/01 A303 RMK A01 T01200014  RH  048%=      5-min Rain = 0
KWA1 012138Z 02014KT 12/01 A303 RMK A01 T01200014  RH  048%=      5-min Rain = 0
KWA1 012139Z 36013KT 12/01 A303 RMK A01 T01190013  RH  048%=      5-min Rain = 0
KWA1 012140Z 35013KT 12/01 A303 RMK A01 T01170012  RH  048%=      5-min Rain = 0
KWA1 012141Z 35011KT 12/01 A303 RMK A01 T01170012  RH  049%=      5-min Rain = 0
KWA1 012142Z 35011KT 12/01 A303 RMK A01 T01160011  RH  049%=      5-min Rain = 0
KWA1 012143Z 35013KT 12/01 A303 RMK A01 T01160012  RH  049%=      5-min Rain = 0
KWA1 012144Z 36013KT 12/01 A303 RMK A01 T01180013  RH  049%=      5-min Rain = 0
KWA1 012145Z 36012KT 12/01 A303 RMK A01 T01190013  RH  048%=      5-min Rain = 0
KWA1 012146Z 35013KT 12/01 A303 RMK A01 T01190012  RH  048%=      5-min Rain = 0
KWA1 012147Z 36013KT 12/01 A303 RMK A01 T01170011  RH  048%=      5-min Rain = 0
KWA1 012148Z 35010KT 12/01 A303 RMK A01 T01150010  RH  049%=      5-min Rain = 0
KWA1 012149Z 35010KT 12/01 A303 RMK A01 T01150011  RH  049%=      5-min Rain = 0
KWA1 012150Z 35011KT 12/01 A303 RMK A01 T01170013  RH  049%=      5-min Rain = 0
KWA1 012151Z 36013KT 12/01 A303 RMK A01 T01180012  RH  048%=      5-min Rain = 0
KWA1 012152Z 36013KT 12/01 A303 RMK A01 T01190013  RH  048%=      5-min Rain = 0
KWA1 012153Z 00013KT 12/01 A303 RMK A01 T01200011  RH  047%=      5-min Rain = 0
KWA1 012154Z 00011KT 12/01 A303 RMK A01 T01170009  RH  047%=      5-min Rain = 0
KWA1 012155Z 35013KT 12/01 A303 RMK A01 T01170010  RH  048%=      5-min Rain = 0
KWA1 012156Z 34013KT 12/01 A303 RMK A01 T01180010  RH  048%=      5-min Rain = 0
KWA1 012157Z 33012KT 12/01 A303 RMK A01 T01180010  RH  048%=      5-min Rain = 0
KWA1 012158Z 35013KT 12/01 A303 RMK A01 T01180011  RH  048%=      5-min Rain = 0
KWA1 012159Z 34011KT 12/01 A303 RMK A01 T01170009  RH  047%=      5-min Rain = 0
KWA1 012200Z 35013KT 12/01 A303 RMK A01 T01160009  RH  048%=      5-min Rain = 0
KWA1 012201Z 36014KT 12/01 A303 RMK A01 T01160011  RH  048%=      5-min Rain = 0
KWA1 012202Z 01013KT 12/01 A303 RMK A01 T01180011  RH  048%=      5-min Rain = 0
KWA1 012203Z 02012KT 12/01 A303 RMK A01 T01190009  RH  047%=      5-min Rain = 0
KWA1 012204Z 00014KT 12/01 A303 RMK A01 T01180010  RH  047%=      5-min Rain = 0
KWA1 012205Z 00013KT 12/01 A303 RMK A01 T01180009  RH  047%=      5-min Rain = 0
KWA1 012206Z 00012KT 12/01 A303 RMK A01 T01170008  RH  047%=      5-min Rain = 0
KWA1 012207Z 36012KT 12/01 A303 RMK A01 T01160008  RH  047%=      5-min Rain = 0
KWA1 012208Z 35010KT 12/01 A303 RMK A01 T01160007  RH  047%=      5-min Rain = 0
KWA1 012209Z 35011KT 12/01 A303 RMK A01 T01150007  RH  047%=      5-min Rain = 0
KWA1 012210Z 36015KT 12/01 A303 RMK A01 T01150008  RH  048%=      5-min Rain = 0
KWA1 012211Z 00012KT 12/01 A303 RMK A01 T01160008  RH  047%=      5-min Rain = 0
KWA1 012212Z 01012KT 12/01 A303 RMK A01 T01160007  RH  047%=      5-min Rain = 0
KWA1 012213Z 01011KT 12/01 A303 RMK A01 T01160006  RH  047%=      5-min Rain = 0
KWA1 012214Z 00012KT 12/01 A303 RMK A01 T01160006  RH  047%=      5-min Rain = 0
KWA1 012215Z 01012KT 12/01 A303 RMK A01 T01160007  RH  047%=      5-min Rain = 0
KWA1 012216Z 01012KT 12/01 A3031 RMK A01 T01170007  RH  047%=      5-min Rain = 0
KWA1 012217Z 01013KT 12/01 A3031 RMK A01 T01160007  RH  047%=      5-min Rain = 0
KWA1 012218Z 01014KT 12/01 A3031 RMK A01 T01160007  RH  047%=      5-min Rain = 0
KWA1 012219Z 01012KT 12/01 A3031 RMK A01 T01150005  RH  047%=      5-min Rain = 0
KWA1 012220Z 02011KT 12/01 A303 RMK A01 T01150005  RH  047%=      5-min Rain = 0
KWA1 012221Z 01011KT 12/01 A303 RMK A01 T01160006  RH  047%=      5-min Rain = 0
KWA1 012222Z 01014KT 12/01 A303 RMK A01 T01170006  RH  047%=      5-min Rain = 0
KWA1 012223Z 01013KT 12/01 A3031 RMK A01 T01160005  RH  046%=      5-min Rain = 0
KWA1 012224Z 36011KT 12/00 A3031 RMK A01 T01150004  RH  046%=      5-min Rain = 0
KWA1 012225Z 01010KT 12/00 A3031 RMK A01 T01150003  RH  046%=      5-min Rain = 0
KWA1 012226Z 01011KT 11/00 A3031 RMK A01 T01130003  RH  046%=      5-min Rain = 0
KWA1 012227Z 35011KT 11/00 A3031 RMK A01 T01140004  RH  047%=      5-min Rain = 0
KWA1 012228Z 34011KT 12/00 A3031 RMK A01 T01150002  RH  046%=      5-min Rain = 0
KWA1 012229Z 36011KT 11/00 A3031 RMK A01 T01140001  RH  046%=      5-min Rain = 0
KWA1 012230Z 36011KT 11/00 A3031 RMK A01 T01140002  RH  046%=      5-min Rain = 0
KWA1 012231Z 01011KT 11/00 A3031 RMK A01 T01130002  RH  046%=      5-min Rain = 0
KWA1 012232Z 01011KT 11/00 A3031 RMK A01 T01130003  RH  047%=      5-min Rain = 0
KWA1 012233Z 01013KT 11/00 A3031 RMK A01 T01140003  RH  046%=      5-min Rain = 0
KWA1 012234Z 01013KT 12/00 A3031 RMK A01 T01150002  RH  046%=      5-min Rain = 0
KWA1 012235Z 01013KT 11/00 A3031 RMK A01 T01140003  RH  046%=      5-min Rain = 0
KWA1 012236Z 01013KT 11/00 A3031 RMK A01 T01140002  RH  046%=      5-min Rain = 0
KWA1 012237Z 01012KT 11/00 A3031 RMK A01 T01140002  RH  046%=      5-min Rain = 0
KWA1 012238Z 00011KT 11/00 A3031 RMK A01 T01130002  RH  046%=      5-min Rain = 0
KWA1 012239Z 00011KT 11/00 A3031 RMK A01 T01140004  RH  047%=      5-min Rain = 0
KWA1 012240Z 00011KT 11/00 A3031 RMK A01 T01140003  RH  046%=      5-min Rain = 0
KWA1 012241Z 01011KT 12/00 A3031 RMK A01 T01150004  RH  046%=      5-min Rain = 0
KWA1 012242Z 01013KT 12/00 A3031 RMK A01 T01150003  RH  046%=      5-min Rain = 0
KWA1 012243Z 02012KT 11/00 A3031 RMK A01 T01140002  RH  046%=      5-min Rain = 0
KWA1 012244Z 01012KT 11/00 A3031 RMK A01 T01140002  RH  046%=      5-min Rain = 0
KWA1 012245Z 01011KT 11/00 A3031 RMK A01 T01130001  RH  046%=      5-min Rain = 0
KWA1 012246Z 01011KT 11/00 A3031 RMK A01 T01140002  RH  046%=      5-min Rain = 0
KWA1 012247Z 01010KT 11/00 A3031 RMK A01 T01140002  RH  046%=      5-min Rain = 0
KWA1 012248Z 00009KT 11/00 A3031 RMK A01 T01140002  RH  046%=      5-min Rain = 0
KWA1 012249Z 00011KT 12/00 A3031 RMK A01 T01150002  RH  046%=      5-min Rain = 0
KWA1 012250Z 00010KT 11/00 A3031 RMK A01 T01140001  RH  046%=      5-min Rain = 0
KWA1 012251Z 00011KT 11/00 A3031 RMK A01 T01140002  RH  046%=      5-min Rain = 0
KWA1 012252Z 01009KT 11/00 A3031 RMK A01 T01140003  RH  046%=      5-min Rain = 0
KWA1 012253Z 01009KT 12/00 A3031 RMK A01 T01160004  RH  046%=      5-min Rain = 0
KWA1 012254Z 01008KT 12/00 A3031 RMK A01 T01170004  RH  046%=      5-min Rain = 0
KWA1 012255Z 01010KT 12/00 A3031 RMK A01 T01180003  RH  045%=      5-min Rain = 0
KWA1 012256Z 01013KT 12/00 A3031 RMK A01 T01160002  RH  045%=      5-min Rain = 0
KWA1 012257Z 01012KT 12/00 A3031 RMK A01 T01150002  RH  046%=      5-min Rain = 0
KWA1 012258Z 01011KT 11/00 A3031 RMK A01 T01140002  RH  046%=      5-min Rain = 0
KWA1 012259Z 01012KT 11/00 A3031 RMK A01 T01140002  RH  046%=      5-min Rain = 0
KWA1 012300Z 01012KT 11/00 A3031 RMK A01 T01140002  RH  046%=      5-min Rain = 0
KWA1 012301Z 01011KT 11/00 A3031 RMK A01 T01130002  RH  046%=      5-min Rain = 0
KWA1 012302Z 01011KT 11/00 A3031 RMK A01 T01130002  RH  046%=      5-min Rain = 0
KWA1 012303Z 36011KT 11/00 A3031 RMK A01 T01130002  RH  046%=      5-min Rain = 0
KWA1 012304Z 00009KT 11/00 A3031 RMK A01 T01140003  RH  046%=      5-min Rain = 0
KWA1 012305Z 36010KT 11/00 A3031 RMK A01 T01140004  RH  047%=      5-min Rain = 0
KWA1 012306Z 36009KT 12/00 A3031 RMK A01 T01150004  RH  047%=      5-min Rain = 0
KWA1 012307Z 01008KT 12/00 A3031 RMK A01 T01150004  RH  047%=      5-min Rain = 0
KWA1 012308Z 00008KT 12/00 A3031 RMK A01 T01160004  RH  046%=      5-min Rain = 0
KWA1 012309Z 00010G15KT 12/00 A3031 RMK A01 T01150004  RH  046%=      5-min Rain = 0
KWA1 012310Z 00012KT 12/00 A3031 RMK A01 T01160004  RH  046%=      5-min Rain = 0
KWA1 012311Z 00013KT 12/M00 A3031 RMK A01 T01151001  RH  045%=      5-min Rain = 0
KWA1 012312Z 01014KT 12/M00 A3031 RMK A01 T01151002  RH  044%=      5-min Rain = 0
KWA1 012313Z 00013KT 12/M00 A3031 RMK A01 T01161002  RH  044%=      5-min Rain = 0
KWA1 012314Z 00013KT 12/M00 A3031 RMK A01 T01151002  RH  044%=      5-min Rain = 0
KWA1 012315Z 00014KT 12/M00 A3031 RMK A01 T01151002  RH  044%=      5-min Rain = 0
KWA1 012316Z 00013KT 11/M00 A3031 RMK A01 T01141002  RH  045%=      5-min Rain = 0
KWA1 012317Z 00013KT 11/M00 A3031 RMK A01 T01141003  RH  044%=      5-min Rain = 0
KWA1 012318Z 00013KT 11/M00 A3031 RMK A01 T01141002  RH  045%=      5-min Rain = 0
KWA1 012319Z 00012KT 11/M00 A3031 RMK A01 T01141002  RH  045%=      5-min Rain = 0
KWA1 012320Z 00013KT 11/M00 A3031 RMK A01 T01141002  RH  045%=      5-min Rain = 0
KWA1 012321Z 36013KT 11/M00 A3031 RMK A01 T01141003  RH  044%=      5-min Rain = 0
KWA1 012322Z 00011KT 11/M00 A3031 RMK A01 T01141003  RH  044%=      5-min Rain = 0
KWA1 012323Z 35013KT 11/M00 A3031 RMK A01 T01141003  RH  045%=      5-min Rain = 0
KWA1 012324Z 35012KT 11/M00 A3031 RMK A01 T01141001  RH  045%=      5-min Rain = 0
KWA1 012325Z 35012KT 11/00 A3031 RMK A01 T011400-0  RH  045%=      5-min Rain = 0
KWA1 012326Z 36013KT 11/M00 A3031 RMK A01 T01141001  RH  045%=      5-min Rain = 0
KWA1 012327Z 01014KT 11/M00 A3031 RMK A01 T01141001  RH  045%=      5-min Rain = 0
KWA1 012328Z 00012KT 11/M00 A3031 RMK A01 T01141002  RH  045%=      5-min Rain = 0
KWA1 012329Z 00011KT 11/M00 A3031 RMK A01 T01141002  RH  045%=      5-min Rain = 0
KWA1 012330Z 01011KT 11/M00 A3031 RMK A01 T01141001  RH  045%=      5-min Rain = 0
KWA1 012331Z 00011KT 11/M00 A3031 RMK A01 T01141001  RH  045%=      5-min Rain = 0
KWA1 012332Z 36011KT 11/M00 A3031 RMK A01 T01141001  RH  045%=      5-min Rain = 0
KWA1 012333Z 36012KT 11/00 A3031 RMK A01 T011400-0  RH  045%=      5-min Rain = 0
KWA1 012334Z 36012KT 11/00 A3031 RMK A01 T011400-0  RH  045%=      5-min Rain = 0
KWA1 012335Z 00013KT 11/M00 A3031 RMK A01 T01131001  RH  045%=      5-min Rain = 0
KWA1 012336Z 00012KT 11/M00 A3031 RMK A01 T01131001  RH  045%=      5-min Rain = 0
KWA1 012337Z 00011KT 11/M00 A3031 RMK A01 T01131001  RH  045%=      5-min Rain = 0
KWA1 012338Z 00012KT 11/M00 A3031 RMK A01 T01131001  RH  045%=      5-min Rain = 0
KWA1 012339Z 00013KT 11/M00 A3031 RMK A01 T01141001  RH  045%=      5-min Rain = 0
KWA1 012340Z 36012KT 11/M00 A3031 RMK A01 T01141001  RH  045%=      5-min Rain = 0
KWA1 012341Z 00013KT 11/00 A3031 RMK A01 T01140001  RH  046%=      5-min Rain = 0
KWA1 012342Z 00012KT 11/00 A3031 RMK A01 T01140000  RH  046%=      5-min Rain = 0
KWA1 012343Z 36012KT 11/00 A3031 RMK A01 T011400-0  RH  045%=      5-min Rain = 0
KWA1 012344Z 00013KT 11/M00 A3031 RMK A01 T01131001  RH  045%=      5-min Rain = 0
KWA1 012345Z 00013KT 11/00 A3031 RMK A01 T01130000  RH  046%=      5-min Rain = 0
KWA1 012346Z 00013KT 11/00 A3031 RMK A01 T011300-0  RH  046%=      5-min Rain = 0
KWA1 012347Z 00013KT 11/00 A3031 RMK A01 T011200-0  RH  046%=      5-min Rain = 0
KWA1 012348Z 36013KT 11/00 A3031 RMK A01 T011200-0  RH  046%=      5-min Rain = 0
KWA1 012349Z 36012KT 11/00 A3031 RMK A01 T01120001  RH  046%=      5-min Rain = 0
KWA1 012350Z 35013KT 11/00 A3031 RMK A01 T01110000  RH  046%=      5-min Rain = 0
KWA1 012351Z 36012KT 11/00 A3031 RMK A01 T01110000  RH  046%=      5-min Rain = 0
KWA1 012352Z 36011KT 11/00 A3031 RMK A01 T01110000  RH  046%=      5-min Rain = 0
KWA1 012353Z 36010KT 11/00 A3031 RMK A01 T01110001  RH  047%=      5-min Rain = 0
KWA1 012354Z 36011KT 11/00 A3032 RMK A01 T01110001  RH  047%=      5-min Rain = 0
KWA1 012355Z 35012KT 11/00 A3032 RMK A01 T01110001  RH  047%=      5-min Rain = 0
KWA1 012356Z 35012KT 11/00 A3032 RMK A01 T01110001  RH  047%=      5-min Rain = 0
KWA1 012357Z 36011KT 11/00 A3032 RMK A01 T01110000  RH  046%=      5-min Rain = 0
KWA1 012358Z 36012KT 11/00 A3032 RMK A01 T01110000  RH  046%=      5-min Rain = 0
KWA1 012359Z 01010KT 11/M00 A3032 RMK A01 T01111001  RH  046%=      5-min Rain = 0
KWA1 020000Z 00011KT 11/M00 A3032 RMK A01 T01101001  RH  046%=      5-min Rain = 0
KWA1 020001Z 00011KT 11/00 A3032 RMK A01 T011100-0  RH  046%=      5-min Rain = 0
KWA1 020002Z 01010KT 11/00 A3032 RMK A01 T01110001  RH  047%=      5-min Rain = 0
KWA1 020003Z 01010KT 11/00 A3032 RMK A01 T011000-0  RH  046%=      5-min Rain = 0
KWA1 020004Z 01010KT 11/00 A3032 RMK A01 T011000-0  RH  046%=      5-min Rain = 0
KWA1 020005Z 01010KT 11/00 A3032 RMK A01 T01100001  RH  047%=      5-min Rain = 0
KWA1 020006Z 00011KT 11/00 A3032 RMK A01 T01110001  RH  047%=      5-min Rain = 0
KWA1 020007Z 00012KT 11/M00 A3032 RMK A01 T01101001  RH  046%=      5-min Rain = 0
KWA1 020008Z 01011KT 11/M00 A3032 RMK A01 T01111001  RH  046%=      5-min Rain = 0
KWA1 020009Z 01012KT 11/M00 A3032 RMK A01 T01101002  RH  046%=      5-min Rain = 0
KWA1 020010Z 01011KT 11/M00 A3032 RMK A01 T01101003  RH  045%=      5-min Rain = 0
KWA1 020011Z 01010KT 11/M00 A3032 RMK A01 T01101003  RH  045%=      5-min Rain = 0
KWA1 020012Z 01011KT 11/M00 A3032 RMK A01 T01101004  RH  045%=      5-min Rain = 0
KWA1 020013Z 01010KT 11/M01 A3032 RMK A01 T01101005  RH  045%=      5-min Rain = 0
KWA1 020014Z 00010KT 11/M01 A3032 RMK A01 T01101005  RH  045%=      5-min Rain = 0
KWA1 020015Z 36010KT 11/M00 A3032 RMK A01 T01101004  RH  045%=      5-min Rain = 0
KWA1 020016Z 00009KT 11/M00 A3032 RMK A01 T01101003  RH  045%=      5-min Rain = 0
KWA1 020017Z 01009KT 11/M00 A3032 RMK A01 T01101004  RH  045%=      5-min Rain = 0
KWA1 020018Z 01010KT 11/M00 A3032 RMK A01 T01091004  RH  045%=      5-min Rain = 0
KWA1 020019Z 01009KT 11/M00 A3032 RMK A01 T01091004  RH  045%=      5-min Rain = 0
KWA1 020020Z 00009KT 11/M00 A3032 RMK A01 T01101004  RH  046%=      5-min Rain = 0
KWA1 020021Z 01010KT 11/M00 A3032 RMK A01 T01091004  RH  045%=      5-min Rain = 0
KWA1 020022Z 00009KT 11/M00 A3032 RMK A01 T01091004  RH  045%=      5-min Rain = 0
KWA1 020023Z 01009KT 11/M01 A3032 RMK A01 T01091005  RH  045%=      5-min Rain = 0
KWA1 020024Z 01010KT 11/M01 A3032 RMK A01 T01091007  RH  044%=      5-min Rain = 0
KWA1 020025Z 01009KT 11/M01 A3032 RMK A01 T01091008  RH  044%=      5-min Rain = 0
KWA1 020026Z 01010KT 11/M01 A3032 RMK A01 T01091008  RH  044%=      5-min Rain = 0
KWA1 020027Z 02010KT 11/M01 A3033 RMK A01 T01091008  RH  044%=      5-min Rain = 0
KWA1 020028Z 01009KT 11/M01 A3033 RMK A01 T01091008  RH  044%=      5-min Rain = 0
KWA1 020029Z 01008KT 11/M01 A3033 RMK A01 T01081008  RH  045%=      5-min Rain = 0
KWA1 020030Z 01008KT 11/M01 A3033 RMK A01 T01081007  RH  045%=      5-min Rain = 0
KWA1 020031Z 01008KT 11/M01 A3033 RMK A01 T01081007  RH  045%=      5-min Rain = 0
KWA1 020032Z 00007KT 11/M01 A3033 RMK A01 T01081007  RH  045%=      5-min Rain = 0
KWA1 020033Z 01008KT 11/M01 A3033 RMK A01 T01071006  RH  045%=      5-min Rain = 0
KWA1 020034Z 01007KT 11/M01 A3033 RMK A01 T01071006  RH  045%=      5-min Rain = 0
KWA1 020035Z 01008KT 11/M01 A3033 RMK A01 T01071006  RH  045%=      5-min Rain = 0
KWA1 020036Z 01008KT 11/M01 A3033 RMK A01 T01071007  RH  045%=      5-min Rain = 0
KWA1 020037Z 01008KT 11/M01 A3033 RMK A01 T01071007  RH  045%=      5-min Rain = 0
KWA1 020038Z 01008KT 11/M01 A3033 RMK A01 T01071007  RH  045%=      5-min Rain = 0
KWA1 020039Z 01007KT 11/M01 A3033 RMK A01 T01061008  RH  045%=      5-min Rain = 0
KWA1 020040Z 00007KT 11/M01 A3033 RMK A01 T01061008  RH  045%=      5-min Rain = 0
KWA1 020041Z 01007KT 11/M01 A3033 RMK A01 T01061007  RH  045%=      5-min Rain = 0
KWA1 020042Z 01007KT 11/M01 A3034 RMK A01 T01061008  RH  045%=      5-min Rain = 0
KWA1 020043Z 00007KT 11/M01 A3034 RMK A01 T01061007  RH  045%=      5-min Rain = 0
KWA1 020044Z 00006KT 11/M01 A3034 RMK A01 T01051007  RH  045%=      5-min Rain = 0
KWA1 020045Z 01007KT 11/M01 A3034 RMK A01 T01051007  RH  045%=      5-min Rain = 0
KWA1 020046Z 00007KT 11/M01 A3034 RMK A01 T01061007  RH  045%=      5-min Rain = 0
KWA1 020047Z 00006KT 11/M01 A3034 RMK A01 T01051008  RH  045%=      5-min Rain = 0
KWA1 020048Z 00007KT 11/M01 A3034 RMK A01 T01051008  RH  046%=      5-min Rain = 0
KWA1 020049Z 01006KT 11/M01 A3034 RMK A01 T01051008  RH  046%=      5-min Rain = 0
KWA1 020050Z 00006KT 11/M01 A3034 RMK A01 T01051007  RH  046%=      5-min Rain = 0
KWA1 020051Z 01006KT 10/M01 A3034 RMK A01 T01041008  RH  046%=      5-min Rain = 0
KWA1 020052Z 01006KT 10/M01 A3034 RMK A01 T01041008  RH  045%=      5-min Rain = 0
KWA1 020053Z 01006KT 10/M01 A3034 RMK A01 T01041008  RH  046%=      5-min Rain = 0
KWA1 020054Z 01006KT 10/M01 A3034 RMK A01 T01041009  RH  045%=      5-min Rain = 0
KWA1 020055Z 01005KT 10/M01 A3034 RMK A01 T01041010  RH  045%=      5-min Rain = 0
KWA1 020056Z 01006KT 10/M01 A3034 RMK A01 T01041010  RH  045%=      5-min Rain = 0
KWA1 020057Z 00005KT 11/M01 A3034 RMK A01 T01051010  RH  045%=      5-min Rain = 0
KWA1 020058Z 00006KT 10/M01 A3034 RMK A01 T01041009  RH  045%=      5-min Rain = 0
KWA1 020059Z 00005KT 10/M01 A3034 RMK A01 T01041010  RH  045%=      5-min Rain = 0
KWA1 020100Z 00006KT 10/M01 A3034 RMK A01 T01041009  RH  045%=      5-min Rain = 0
KWA1 020101Z 00006KT 10/M01 A3034 RMK A01 T01031009  RH  046%=      5-min Rain = 0
KWA1 020102Z 00006KT 10/M01 A3034 RMK A01 T01031009  RH  046%=      5-min Rain = 0
KWA1 020103Z 00006KT 10/M01 A3034 RMK A01 T01031009  RH  046%=      5-min Rain = 0
KWA1 020104Z 36006KT 10/M01 A3034 RMK A01 T01021009  RH  046%=      5-min Rain = 0
KWA1 020105Z 36006KT 10/M01 A3034 RMK A01 T01021008  RH  046%=      5-min Rain = 0
KWA1 020106Z 36005KT 10/M01 A3034 RMK A01 T01021008  RH  047%=      5-min Rain = 0
KWA1 020107Z 36005KT 10/M01 A3034 RMK A01 T01011007  RH  047%=      5-min Rain = 0
KWA1 020108Z 36005KT 10/M01 A3034 RMK A01 T01011006  RH  047%=      5-min Rain = 0
KWA1 020109Z 36005KT 10/M01 A3034 RMK A01 T01001006  RH  048%=      5-min Rain = 0
KWA1 020110Z 36005KT 10/M01 A3034 RMK A01 T01001006  RH  048%=      5-min Rain = 0
KWA1 020111Z 35005KT 10/M01 A3034 RMK A01 T01001006  RH  048%=      5-min Rain = 0
KWA1 020112Z 35005KT 10/M01 A3035 RMK A01 T01001006  RH  048%=      5-min Rain = 0
KWA1 020113Z 36005KT 10/M01 A3035 RMK A01 T01001006  RH  048%=      5-min Rain = 0
KWA1 020114Z 36005KT 10/M01 A3035 RMK A01 T01001006  RH  048%=      5-min Rain = 0
KWA1 020115Z 35006KT 10/M01 A3035 RMK A01 T00991006  RH  048%=      5-min Rain = 0
KWA1 020116Z 35005KT 10/M01 A3035 RMK A01 T00991006  RH  048%=      5-min Rain = 0
KWA1 020117Z 35005KT 10/M01 A3035 RMK A01 T00991005  RH  048%=      5-min Rain = 0
KWA1 020118Z 35005KT 10/M01 A3035 RMK A01 T00981005  RH  048%=      5-min Rain = 0
KWA1 020119Z 36005KT 10/M01 A3035 RMK A01 T00981005  RH  049%=      5-min Rain = 0
KWA1 020120Z 00005KT 10/M01 A3035 RMK A01 T00981005  RH  049%=      5-min Rain = 0
KWA1 020121Z 35005KT 10/M01 A3035 RMK A01 T00971005  RH  049%=      5-min Rain = 0
KWA1 020122Z 35005KT 10/M00 A3035 RMK A01 T00971004  RH  049%=      5-min Rain = 0
KWA1 020123Z 35006KT 10/M01 A3035 RMK A01 T00961005  RH  049%=      5-min Rain = 0
KWA1 020124Z 35006KT 10/M00 A3035 RMK A01 T00961004  RH  049%=      5-min Rain = 0
KWA1 020125Z 35007KT 10/M01 A3035 RMK A01 T00961005  RH  049%=      5-min Rain = 0
KWA1 020126Z 35008KT 10/M01 A3035 RMK A01 T00961006  RH  049%=      5-min Rain = 0
KWA1 020127Z 35008KT 10/M01 A3036 RMK A01 T00971006  RH  049%=      5-min Rain = 0
KWA1 020128Z 00008KT 10/M01 A3036 RMK A01 T00971007  RH  048%=      5-min Rain = 0
KWA1 020129Z 00009KT 10/M01 A3036 RMK A01 T00981008  RH  048%=      5-min Rain = 0
KWA1 020130Z 00010KT 10/M01 A3036 RMK A01 T00981010  RH  047%=      5-min Rain = 0
KWA1 020131Z 01014KT 10/M02 A3036 RMK A01 T00991015  RH  045%=      5-min Rain = 0
KWA1 020132Z 01014KT 10/M02 A3036 RMK A01 T01011021  RH  042%=      5-min Rain = 0
KWA1 020133Z 36014KT 10/M02 A3036 RMK A01 T01011020  RH  043%=      5-min Rain = 0
KWA1 020134Z 00013KT 10/M02 A3036 RMK A01 T01011020  RH  043%=      5-min Rain = 0
KWA1 020135Z 00014KT 10/M02 A3036 RMK A01 T01011020  RH  043%=      5-min Rain = 0
KWA1 020136Z 00013KT 10/M02 A3036 RMK A01 T01011022  RH  042%=      5-min Rain = 0
KWA1 020137Z 00011KT 10/M02 A3036 RMK A01 T01001020  RH  043%=      5-min Rain = 0
KWA1 020138Z 00012KT 10/M02 A3036 RMK A01 T01001020  RH  043%=      5-min Rain = 0
KWA1 020139Z 36012KT 10/M02 A3036 RMK A01 T00991019  RH  043%=      5-min Rain = 0
KWA1 020140Z 36012KT 10/M02 A3036 RMK A01 T00991021  RH  043%=      5-min Rain = 0
KWA1 020141Z 36012KT 10/M02 A3036 RMK A01 T00981023  RH  043%=      5-min Rain = 0
KWA1 020142Z 36014KT 10/M02 A3036 RMK A01 T00991023  RH  042%=      5-min Rain = 0
KWA1 020143Z 36013KT 10/M03 A3036 RMK A01 T00981025  RH  042%=      5-min Rain = 0
KWA1 020144Z 36012KT 10/M02 A3036 RMK A01 T00981024  RH  042%=      5-min Rain = 0
KWA1 020145Z 00012KT 10/M02 A3036 RMK A01 T00981024  RH  042%=      5-min Rain = 0
KWA1 020146Z 00013KT 10/M02 A3036 RMK A01 T00971024  RH  043%=      5-min Rain = 0
KWA1 020147Z 00013KT 10/M03 A3036 RMK A01 T00971025  RH  042%=      5-min Rain = 0
KWA1 020148Z 00011KT 10/M02 A3036 RMK A01 T00971024  RH  043%=      5-min Rain = 0
KWA1 020149Z 00011KT 10/M02 A3036 RMK A01 T00971023  RH  043%=      5-min Rain = 0
KWA1 020150Z 01011KT 10/M02 A3036 RMK A01 T00961023  RH  043%=      5-min Rain = 0
KWA1 020151Z 01012KT 10/M02 A3036 RMK A01 T00961023  RH  043%=      5-min Rain = 0
KWA1 020152Z 00012KT 10/M02 A3036 RMK A01 T00961023  RH  043%=      5-min Rain = 0
KWA1 020153Z 00012KT 10/M02 A3036 RMK A01 T00961023  RH  043%=      5-min Rain = 0
KWA1 020154Z 01012KT 10/M02 A3036 RMK A01 T00961023  RH  043%=      5-min Rain = 0
KWA1 020155Z 01011KT 10/M02 A3036 RMK A01 T00951023  RH  043%=      5-min Rain = 0
KWA1 020156Z 00011KT 10/M02 A3036 RMK A01 T00951023  RH  044%=      5-min Rain = 0
KWA1 020157Z 00013KT 10/M02 A3036 RMK A01 T00951023  RH  043%=      5-min Rain = 0
KWA1 020158Z 01012KT 10/M02 A3037 RMK A01 T00951024  RH  043%=      5-min Rain = 0
KWA1 020159Z 01012KT 10/M02 A3037 RMK A01 T00951024  RH  043%=      5-min Rain = 0
KWA1 020200Z 01011KT 10/M02 A3037 RMK A01 T00951024  RH  043%=      5-min Rain = 0
KWA1 020201Z 01010KT 09/M02 A3037 RMK A01 T00941023  RH  044%=      5-min Rain = 0
KWA1 020202Z 01012KT 09/M02 A3037 RMK A01 T00941023  RH  044%=      5-min Rain = 0
KWA1 020203Z 01011KT 09/M02 A3037 RMK A01 T00941024  RH  043%=      5-min Rain = 0
KWA1 020204Z 01011KT 09/M02 A3037 RMK A01 T00941023  RH  044%=      5-min Rain = 0
KWA1 020205Z 00010KT 09/M02 A3037 RMK A01 T00941023  RH  044%=      5-min Rain = 0
KWA1 020206Z 00010KT 09/M02 A3037 RMK A01 T00931023  RH  044%=      5-min Rain = 0
KWA1 020207Z 00010KT 09/M02 A3037 RMK A01 T00931023  RH  044%=      5-min Rain = 0
KWA1 020208Z 00009KT 09/M02 A3037 RMK A01 T00931023  RH  044%=      5-min Rain = 0
KWA1 020209Z 00009KT 09/M02 A3037 RMK A01 T00921022  RH  045%=      5-min Rain = 0
KWA1 020210Z 36009KT 09/M02 A3037 RMK A01 T00921022  RH  045%=      5-min Rain = 0
KWA1 020211Z 00009KT 09/M02 A3037 RMK A01 T00921022  RH  045%=      5-min Rain = 0
KWA1 020212Z 00008KT 09/M02 A3037 RMK A01 T00911023  RH  045%=      5-min Rain = 0
KWA1 020213Z 00009KT 09/M02 A3037 RMK A01 T00911022  RH  045%=      5-min Rain = 0
KWA1 020214Z 36009KT 09/M02 A3037 RMK A01 T00911022  RH  045%=      5-min Rain = 0
KWA1 020215Z 00009KT 09/M02 A3037 RMK A01 T00911022  RH  045%=      5-min Rain = 0
KWA1 020216Z 00010KT 09/M02 A3037 RMK A01 T00901022  RH  045%=      5-min Rain = 0
KWA1 020217Z 00010KT 09/M02 A3037 RMK A01 T00901022  RH  045%=      5-min Rain = 0
KWA1 020218Z 00009KT 09/M02 A3037 RMK A01 T00901022  RH  045%=      5-min Rain = 0
KWA1 020219Z 00009KT 09/M02 A3037 RMK A01 T00891021  RH  046%=      5-min Rain = 0
KWA1 020220Z 00009KT 09/M02 A3037 RMK A01 T00891021  RH  046%=      5-min Rain = 0
KWA1 020221Z 00009KT 09/M02 A3037 RMK A01 T00881022  RH  046%=      5-min Rain = 0
KWA1 020222Z 36009KT 09/M02 A3037 RMK A01 T00881021  RH  046%=      5-min Rain = 0
KWA1 020223Z 36008KT 09/M02 A3037 RMK A01 T00881021  RH  046%=      5-min Rain = 0
KWA1 020224Z 00008KT 09/M02 A3037 RMK A01 T00871021  RH  046%=      5-min Rain = 0
KWA1 020225Z 36008KT 09/M02 A3037 RMK A01 T00871022  RH  046%=      5-min Rain = 0
KWA1 020226Z 00009KT 09/M02 A3037 RMK A01 T00861022  RH  046%=      5-min Rain = 0
KWA1 020227Z 36009KT 09/M02 A3037 RMK A01 T00861022  RH  046%=      5-min Rain = 0
KWA1 020228Z 36009KT 09/M02 A3037 RMK A01 T00861022  RH  047%=      5-min Rain = 0
KWA1 020229Z 00008KT 09/M02 A3037 RMK A01 T00851022  RH  047%=      5-min Rain = 0
KWA1 020230Z 36008KT 08/M02 A3037 RMK A01 T00841023  RH  047%=      5-min Rain = 0
KWA1 020231Z 36008KT 08/M02 A3037 RMK A01 T00841023  RH  047%=      5-min Rain = 0
KWA1 020232Z 00008KT 08/M02 A3037 RMK A01 T00831023  RH  047%=      5-min Rain = 0
KWA1 020233Z 36008KT 08/M02 A3037 RMK A01 T00821023  RH  047%=      5-min Rain = 0
KWA1 020234Z 36008KT 08/M02 A3037 RMK A01 T00821023  RH  048%=      5-min Rain = 0
KWA1 020235Z 36008KT 08/M02 A3037 RMK A01 T00811023  RH  048%=      5-min Rain = 0
KWA1 020236Z 36008KT 08/M02 A3037 RMK A01 T00801023  RH  048%=      5-min Rain = 0
KWA1 020237Z 36008KT 08/M02 A3037 RMK A01 T00791024  RH  048%=      5-min Rain = 0
KWA1 020238Z 36008KT 08/M02 A3037 RMK A01 T00781024  RH  049%=      5-min Rain = 0
KWA1 020239Z 36008KT 08/M02 A3037 RMK A01 T00771024  RH  049%=      5-min Rain = 0
KWA1 020240Z 00008KT 08/M02 A3037 RMK A01 T00761024  RH  049%=      5-min Rain = 0
KWA1 020241Z 00008KT 08/M02 A3037 RMK A01 T00761024  RH  049%=      5-min Rain = 0
KWA1 020242Z 00008KT 08/M02 A3037 RMK A01 T00761024  RH  049%=      5-min Rain = 0
KWA1 020243Z 00007KT 08/M03 A3037 RMK A01 T00751025  RH  049%=      5-min Rain = 0
KWA1 020244Z 00008KT 07/M03 A3037 RMK A01 T00741025  RH  049%=      5-min Rain = 0
KWA1 020245Z 00007KT 07/M03 A3037 RMK A01 T00741025  RH  050%=      5-min Rain = 0
KWA1 020246Z 00007KT 07/M03 A3037 RMK A01 T00731025  RH  050%=      5-min Rain = 0
KWA1 020247Z 00008KT 07/M03 A3037 RMK A01 T00721026  RH  050%=      5-min Rain = 0
KWA1 020248Z 00007KT 07/M03 A3037 RMK A01 T00711026  RH  050%=      5-min Rain = 0
KWA1 020249Z 00007KT 07/M03 A3037 RMK A01 T00711026  RH  050%=      5-min Rain = 0
KWA1 020250Z 00007KT 07/M03 A3037 RMK A01 T00701026  RH  050%=      5-min Rain = 0
KWA1 020251Z 01007KT 07/M03 A3037 RMK A01 T00701026  RH  050%=      5-min Rain = 0
KWA1 020252Z 01007KT 07/M03 A3037 RMK A01 T00691027  RH  050%=      5-min Rain = 0
KWA1 020253Z 00007KT 07/M03 A3037 RMK A01 T00691027  RH  050%=      5-min Rain = 0
KWA1 020254Z 01007KT 07/M03 A3037 RMK A01 T00681028  RH  050%=      5-min Rain = 0
KWA1 020255Z 01006KT 07/M03 A3037 RMK A01 T00671028  RH  050%=      5-min Rain = 0
KWA1 020256Z 01006KT 07/M03 A3037 RMK A01 T00671029  RH  051%=      5-min Rain = 0
KWA1 020257Z 01006KT 07/M03 A3037 RMK A01 T00651029  RH  051%=      5-min Rain = 0
KWA1 020258Z 01006KT 07/M03 A3037 RMK A01 T00651030  RH  051%=      5-min Rain = 0
KWA1 020259Z 01006KT 07/M03 A3037 RMK A01 T00651029  RH  051%=      5-min Rain = 0
KWA1 020300Z 01006KT 06/M03 A3037 RMK A01 T00631030  RH  051%=      5-min Rain = 0
KWA1 020301Z 00006KT 06/M03 A3037 RMK A01 T00621031  RH  051%=      5-min Rain = 0
KWA1 020302Z 01006KT 06/M03 A3037 RMK A01 T00611030  RH  052%=      5-min Rain = 0
KWA1 020303Z 01007KT 06/M03 A3037 RMK A01 T00601030  RH  053%=      5-min Rain = 0
KWA1 020304Z 01007KT 06/M03 A3037 RMK A01 T00591030  RH  053%=      5-min Rain = 0
KWA1 020305Z 01007KT 06/M03 A3037 RMK A01 T00591030  RH  053%=      5-min Rain = 0
KWA1 020306Z 01007KT 06/M03 A3037 RMK A01 T00591031  RH  053%=      5-min Rain = 0
KWA1 020307Z 01007KT 06/M03 A3037 RMK A01 T00591031  RH  052%=      5-min Rain = 0
KWA1 020308Z 01007KT 06/M03 A3037 RMK A01 T00591031  RH  052%=      5-min Rain = 0
KWA1 020309Z 01007KT 06/M03 A3037 RMK A01 T00591031  RH  052%=      5-min Rain = 0
KWA1 020310Z 01007KT 06/M03 A3037 RMK A01 T00591030  RH  053%=      5-min Rain = 0
KWA1 020311Z 01008KT 06/M03 A3037 RMK A01 T00581030  RH  053%=      5-min Rain = 0
KWA1 020312Z 01007KT 06/M03 A3037 RMK A01 T00581031  RH  053%=      5-min Rain = 0
KWA1 020313Z 01008KT 06/M03 A3037 RMK A01 T00581031  RH  053%=      5-min Rain = 0
KWA1 020314Z 01008KT 06/M03 A3037 RMK A01 T00581032  RH  052%=      5-min Rain = 0
KWA1 020315Z 01008KT 06/M03 A3037 RMK A01 T00591032  RH  052%=      5-min Rain = 0
KWA1 020316Z 01007KT 06/M03 A3037 RMK A01 T00591033  RH  052%=      5-min Rain = 0
KWA1 020317Z 01007KT 06/M03 A3037 RMK A01 T00581034  RH  052%=      5-min Rain = 0
KWA1 020318Z 01007KT 06/M04 A3037 RMK A01 T00571035  RH  052%=      5-min Rain = 0
KWA1 020319Z 01007KT 06/M04 A3037 RMK A01 T00571035  RH  052%=      5-min Rain = 0
KWA1 020320Z 01007KT 06/M04 A3037 RMK A01 T00561036  RH  052%=      5-min Rain = 0
KWA1 020321Z 01007KT 06/M04 A3037 RMK A01 T00551036  RH  052%=      5-min Rain = 0
KWA1 020322Z 01007KT 05/M04 A3037 RMK A01 T00541036  RH  052%=      5-min Rain = 0
KWA1 020323Z 01007KT 05/M04 A3037 RMK A01 T00521037  RH  053%=      5-min Rain = 0
KWA1 020324Z 01007KT 05/M04 A3037 RMK A01 T00521037  RH  053%=      5-min Rain = 0
KWA1 020325Z 01007KT 05/M04 A3038 RMK A01 T00501037  RH  053%=      5-min Rain = 0
KWA1 020326Z 01007KT 05/M04 A3038 RMK A01 T00491037  RH  053%=      5-min Rain = 0
KWA1 020327Z 01007KT 05/M04 A3038 RMK A01 T00491037  RH  054%=      5-min Rain = 0
KWA1 020328Z 01007KT 05/M04 A3038 RMK A01 T00481037  RH  054%=      5-min Rain = 0
KWA1 020329Z 01007KT 05/M04 A3038 RMK A01 T00471037  RH  054%=      5-min Rain = 0
KWA1 020330Z 01007KT 05/M04 A3037 RMK A01 T00461037  RH  055%=      5-min Rain = 0
KWA1 020331Z 01007KT 05/M04 A3037 RMK A01 T00461038  RH  055%=      5-min Rain = 0
KWA1 020332Z 02006KT 05/M04 A3037 RMK A01 T00451037  RH  055%=      5-min Rain = 0
KWA1 020333Z 02007KT 05/M04 A3037 RMK A01 T00451037  RH  055%=      5-min Rain = 0
KWA1 020334Z 02007KT 04/M04 A3037 RMK A01 T00441037  RH  056%=      5-min Rain = 0
KWA1 020335Z 02006KT 04/M04 A3037 RMK A01 T00441036  RH  056%=      5-min Rain = 0
KWA1 020336Z 02006KT 04/M04 A3037 RMK A01 T00441036  RH  056%=      5-min Rain = 0
KWA1 020337Z 02006KT 04/M04 A3037 RMK A01 T00441036  RH  056%=      5-min Rain = 0
KWA1 020338Z 02006KT 04/M04 A3037 RMK A01 T00441036  RH  056%=      5-min Rain = 0
KWA1 020339Z 02006KT 04/M04 A3037 RMK A01 T00441037  RH  056%=      5-min Rain = 0
KWA1 020340Z 01006KT 04/M04 A3037 RMK A01 T00441037  RH  056%=      5-min Rain = 0
KWA1 020341Z 01007KT 04/M04 A3037 RMK A01 T00441037  RH  056%=      5-min Rain = 0
KWA1 020342Z 01007KT 04/M04 A3037 RMK A01 T00431037  RH  056%=      5-min Rain = 0
KWA1 020343Z 01007KT 04/M04 A3037 RMK A01 T00421037  RH  056%=      5-min Rain = 0
KWA1 020344Z 01007KT 04/M04 A3037 RMK A01 T00411037  RH  057%=      5-min Rain = 0
KWA1 020345Z 00007KT 04/M04 A3037 RMK A01 T00401037  RH  057%=      5-min Rain = 0
KWA1 020346Z 00006KT 04/M04 A3037 RMK A01 T00391039  RH  057%=      5-min Rain = 0
KWA1 020347Z 00006KT 04/M04 A3037 RMK A01 T00371040  RH  057%=      5-min Rain = 0
KWA1 020348Z 00006KT 03/M04 A3037 RMK A01 T00341041  RH  058%=      5-min Rain = 0
KWA1 020349Z 00006KT 03/M04 A3037 RMK A01 T00331040  RH  059%=      5-min Rain = 0
KWA1 020350Z 00006KT 03/M04 A3037 RMK A01 T00311040  RH  060%=      5-min Rain = 0
KWA1 020351Z 01006KT 03/M04 A3037 RMK A01 T00301041  RH  060%=      5-min Rain = 0
KWA1 020352Z 00005KT 03/M04 A3037 RMK A01 T00291040  RH  060%=      5-min Rain = 0
KWA1 020353Z 00005KT 03/M04 A3037 RMK A01 T00291040  RH  060%=      5-min Rain = 0
KWA1 020354Z 00005KT 03/M04 A3037 RMK A01 T00281040  RH  061%=      5-min Rain = 0
KWA1 020355Z 00005KT 03/M04 A3037 RMK A01 T00271038  RH  062%=      5-min Rain = 0
KWA1 020356Z 00005KT 03/M04 A3037 RMK A01 T00271038  RH  062%=      5-min Rain = 0
KWA1 020357Z 00005KT 03/M04 A3037 RMK A01 T00271037  RH  063%=      5-min Rain = 0
KWA1 020358Z 00005KT 03/M04 A3037 RMK A01 T00261035  RH  064%=      5-min Rain = 0
KWA1 020359Z 00006KT 03/M04 A3038 RMK A01 T00261035  RH  064%=      5-min Rain = 0
KWA1 020400Z 36006KT 03/M04 A3038 RMK A01 T00261037  RH  063%=      5-min Rain = 0
KWA1 020401Z 35005KT 03/M04 A3038 RMK A01 T00261036  RH  064%=      5-min Rain = 0
KWA1 020402Z 35005KT 03/M04 A3038 RMK A01 T00261035  RH  064%=      5-min Rain = 0
KWA1 020403Z 35005KT 03/M04 A3038 RMK A01 T00261037  RH  063%=      5-min Rain = 0
KWA1 020404Z 35005KT 03/M04 A3038 RMK A01 T00261038  RH  063%=      5-min Rain = 0
KWA1 020405Z 35005KT 03/M04 A3038 RMK A01 T00261038  RH  063%=      5-min Rain = 0
KWA1 020406Z 35005KT 03/M04 A3038 RMK A01 T00271038  RH  062%=      5-min Rain = 0
KWA1 020407Z 00005KT 03/M04 A3038 RMK A01 T00261038  RH  063%=      5-min Rain = 0
KWA1 020408Z 36004KT 03/M04 A3038 RMK A01 T00261038  RH  063%=      5-min Rain = 0
KWA1 020409Z 00004KT 03/M04 A3038 RMK A01 T00261039  RH  062%=      5-min Rain = 0
KWA1 020410Z 00004KT 03/M04 A3038 RMK A01 T00261040  RH  062%=      5-min Rain = 0
KWA1 020411Z 36004KT 03/M04 A3038 RMK A01 T00271040  RH  061%=      5-min Rain = 0
KWA1 020412Z 35004KT 03/M04 A3038 RMK A01 T00271040  RH  061%=      5-min Rain = 0
KWA1 020413Z 35004KT 03/M04 A3038 RMK A01 T00271039  RH  062%=      5-min Rain = 0
KWA1 020414Z 35004KT 03/M04 A3038 RMK A01 T00271038  RH  062%=      5-min Rain = 0
KWA1 020415Z 35004KT 03/M04 A3038 RMK A01 T00271038  RH  062%=      5-min Rain = 0
KWA1 020416Z 35004KT 03/M04 A3038 RMK A01 T00271038  RH  062%=      5-min Rain = 0
KWA1 020417Z 35004KT 03/M04 A3037 RMK A01 T00271038  RH  062%=      5-min Rain = 0
KWA1 020418Z 35004KT 03/M04 A3037 RMK A01 T00271038  RH  062%=      5-min Rain = 0
KWA1 020419Z 35004KT 03/M04 A3037 RMK A01 T00271038  RH  062%=      5-min Rain = 0
KWA1 020420Z 36004KT 03/M04 A3037 RMK A01 T00271038  RH  062%=      5-min Rain = 0
KWA1 020421Z 00004KT 03/M04 A3037 RMK A01 T00271038  RH  062%=      5-min Rain = 0
KWA1 020422Z 00004KT 03/M04 A3038 RMK A01 T00271038  RH  062%=      5-min Rain = 0
KWA1 020423Z 00003KT 03/M04 A3038 RMK A01 T00271038  RH  062%=      5-min Rain = 0
KWA1 020424Z 36003KT 03/M04 A3038 RMK A01 T00281037  RH  062%=      5-min Rain = 0
KWA1 020425Z 35003KT 03/M04 A3038 RMK A01 T00281037  RH  062%=      5-min Rain = 0
KWA1 020426Z 34004KT 03/M04 A3038 RMK A01 T00281038  RH  062%=      5-min Rain = 0
KWA1 020427Z 33003KT 03/M04 A3038 RMK A01 T00281040  RH  061%=      5-min Rain = 0
KWA1 020428Z 33003KT 03/M04 A3038 RMK A01 T00271041  RH  061%=      5-min Rain = 0
KWA1 020429Z 33003KT 03/M04 A3038 RMK A01 T00261043  RH  060%=      5-min Rain = 0
KWA1 020430Z 33003KT 03/M04 A3037 RMK A01 T00261044  RH  060%=      5-min Rain = 0
KWA1 020431Z 33003KT 03/M04 A3037 RMK A01 T00261043  RH  060%=      5-min Rain = 0
KWA1 020432Z 33003KT 03/M04 A3037 RMK A01 T00271043  RH  060%=      5-min Rain = 0
KWA1 020433Z 33003KT 03/M04 A3037 RMK A01 T00251043  RH  061%=      5-min Rain = 0
KWA1 020434Z 33002KT 02/M05 A3037 RMK A01 T00231045  RH  061%=      5-min Rain = 0
KWA1 020435Z 33003KT 02/M04 A3037 RMK A01 T00221043  RH  062%=      5-min Rain = 0
KWA1 020436Z 34003KT 02/M04 A3038 RMK A01 T00221043  RH  062%=      5-min Rain = 0
KWA1 020437Z 34003KT 02/M04 A3038 RMK A01 T00221043  RH  062%=      5-min Rain = 0
KWA1 020438Z 34003KT 02/M04 A3038 RMK A01 T00221044  RH  062%=      5-min Rain = 0
KWA1 020439Z 34003KT 02/M04 A3038 RMK A01 T00221044  RH  062%=      5-min Rain = 0
KWA1 020440Z 34003KT 02/M04 A3037 RMK A01 T00221043  RH  062%=      5-min Rain = 0
KWA1 020441Z 34003KT 02/M04 A3037 RMK A01 T00231043  RH  062%=      5-min Rain = 0
KWA1 020442Z 35003KT 02/M04 A3037 RMK A01 T00231043  RH  062%=      5-min Rain = 0
KWA1 020443Z 35003KT 02/M04 A3037 RMK A01 T00231042  RH  062%=      5-min Rain = 0
KWA1 020444Z 35003KT 02/M04 A3037 RMK A01 T00241040  RH  063%=      5-min Rain = 0
KWA1 020445Z 34003KT 03/M04 A3037 RMK A01 T00251040  RH  062%=      5-min Rain = 0
KWA1 020446Z 34003KT 03/M04 A3037 RMK A01 T00251040  RH  062%=      5-min Rain = 0
KWA1 020447Z 34003KT 03/M04 A3037 RMK A01 T00261041  RH  061%=      5-min Rain = 0
KWA1 020448Z 34003KT 03/M04 A3037 RMK A01 T00271042  RH  061%=      5-min Rain = 0
KWA1 020449Z 33003KT 03/M04 A3037 RMK A01 T00261043  RH  060%=      5-min Rain = 0
KWA1 020450Z 33003KT 03/M04 A3037 RMK A01 T00251044  RH  060%=      5-min Rain = 0
KWA1 020451Z 33003KT 03/M04 A3037 RMK A01 T00251044  RH  060%=      5-min Rain = 0
KWA1 020452Z 33002KT 03/M05 A3037 RMK A01 T00251045  RH  060%=      5-min Rain = 0
KWA1 020453Z 33002KT 02/M05 A3037 RMK A01 T00241049  RH  059%=      5-min Rain = 0
KWA1 020454Z 33002KT 02/M05 A3038 RMK A01 T00221050  RH  059%=      5-min Rain = 0
KWA1 020455Z 33002KT 02/M05 A3038 RMK A01 T00211047  RH  061%=      5-min Rain = 0
KWA1 020456Z 32003KT 02/M04 A3038 RMK A01 T00241042  RH  061%=      5-min Rain = 0
KWA1 020457Z 31004KT 03/M04 A3038 RMK A01 T00261043  RH  060%=      5-min Rain = 0
KWA1 020458Z 33004KT 03/M04 A3038 RMK A01 T00271043  RH  060%=      5-min Rain = 0
KWA1 020459Z 34003KT 03/M04 A3037 RMK A01 T00281043  RH  060%=      5-min Rain = 0
KWA1 020500Z 34003KT 03/M04 A3037 RMK A01 T00291042  RH  059%=      5-min Rain = 0
KWA1 020501Z 34003KT 03/M04 A3037 RMK A01 T00301043  RH  058%=      5-min Rain = 0
KWA1 020502Z 34003KT 03/M04 A3037 RMK A01 T00301044  RH  058%=      5-min Rain = 0
KWA1 020503Z 33003KT 03/M04 A3037 RMK A01 T00301044  RH  058%=      5-min Rain = 0
KWA1 020504Z 33003KT 03/M04 A3037 RMK A01 T00311044  RH  058%=      5-min Rain = 0
KWA1 020505Z 32003KT 03/M05 A3037 RMK A01 T00301045  RH  058%=      5-min Rain = 0
KWA1 020506Z 32003KT 03/M05 A3037 RMK A01 T00311045  RH  058%=      5-min Rain = 0
KWA1 020507Z 32003KT 03/M04 A3037 RMK A01 T00301044  RH  058%=      5-min Rain = 0
KWA1 020508Z 33002KT 03/M05 A3037 RMK A01 T00301045  RH  058%=      5-min Rain = 0
KWA1 020509Z 33002KT 03/M05 A3037 RMK A01 T00291045  RH  058%=      5-min Rain = 0
KWA1 020510Z 33002KT 03/M04 A3037 RMK A01 T00291044  RH  059%=      5-min Rain = 0
KWA1 020511Z 33002KT 03/M04 A3037 RMK A01 T00301043  RH  059%=      5-min Rain = 0
KWA1 020512Z 33002KT 03/M04 A3037 RMK A01 T00311043  RH  059%=      5-min Rain = 0
KWA1 020513Z 32002KT 03/M04 A3037 RMK A01 T00311043  RH  058%=      5-min Rain = 0
KWA1 020514Z 32002KT 03/M04 A3037 RMK A01 T00311043  RH  058%=      5-min Rain = 0
KWA1 020515Z 31003KT 03/M04 A3037 RMK A01 T00311044  RH  058%=      5-min Rain = 0
KWA1 020516Z 31003KT 03/M04 A3037 RMK A01 T00311043  RH  058%=      5-min Rain = 0
KWA1 020517Z 31003KT 03/M04 A3037 RMK A01 T00311043  RH  058%=      5-min Rain = 0
KWA1 020518Z 31003KT 03/M04 A3037 RMK A01 T00311043  RH  058%=      5-min Rain = 0
KWA1 020519Z 31003KT 03/M04 A3037 RMK A01 T00311043  RH  058%=      5-min Rain = 0
KWA1 020520Z 31003KT 03/M05 A3037 RMK A01 T00301045  RH  058%=      5-min Rain = 0
KWA1 020521Z 31003KT 03/M05 A3037 RMK A01 T00291046  RH  058%=      5-min Rain = 0
KWA1 020522Z 30004KT 03/M05 A3037 RMK A01 T00251051  RH  057%=      5-min Rain = 0
KWA1 020523Z 29004KT 02/M06 A3037 RMK A01 T00201055  RH  057%=      5-min Rain = 0
KWA1 020524Z 28004KT 02/M06 A3037 RMK A01 T00161057  RH  058%=      5-min Rain = 0
KWA1 020525Z 28004KT 01/M06 A3037 RMK A01 T00141056  RH  060%=      5-min Rain = 0
KWA1 020526Z 28004KT 01/M05 A3037 RMK A01 T00131054  RH  061%=      5-min Rain = 0
KWA1 020527Z 28004KT 01/M05 A3037 RMK A01 T00131054  RH  061%=      5-min Rain = 0
KWA1 020528Z 27004KT 01/M05 A3037 RMK A01 T00131054  RH  061%=      5-min Rain = 0
KWA1 020529Z 27005KT 01/M05 A3037 RMK A01 T00131054  RH  061%=      5-min Rain = 0
KWA1 020530Z 27005KT 01/M05 A3037 RMK A01 T00121054  RH  061%=      5-min Rain = 0
KWA1 020531Z 27004KT 01/M06 A3037 RMK A01 T00121055  RH  061%=      5-min Rain = 0
KWA1 020532Z 28004KT 01/M06 A3037 RMK A01 T00101058  RH  061%=      5-min Rain = 0
KWA1 020533Z 28004KT 01/M06 A3037 RMK A01 T00071059  RH  061%=      5-min Rain = 0
KWA1 020534Z 28005KT 01/M06 A3037 RMK A01 T00061059  RH  062%=      5-min Rain = 0
KWA1 020535Z 28005KT 01/M06 A3037 RMK A01 T00051059  RH  062%=      5-min Rain = 0
KWA1 020536Z 28004KT 00/M06 A3037 RMK A01 T00041058  RH  063%=      5-min Rain = 0
KWA1 020537Z 28004KT 00/M06 A3037 RMK A01 T00031057  RH  064%=      5-min Rain = 0
KWA1 020538Z 28004KT 00/M06 A3037 RMK A01 T00041056  RH  064%=      5-min Rain = 0
KWA1 020539Z 28005KT 00/M06 A3037 RMK A01 T00041056  RH  064%=      5-min Rain = 0
KWA1 020540Z 28004KT 00/M05 A3037 RMK A01 T00041054  RH  065%=      5-min Rain = 0
KWA1 020541Z 27004KT 01/M05 A3036 RMK A01 T00051054  RH  065%=      5-min Rain = 0
KWA1 020542Z 27005KT 01/M06 A3036 RMK A01 T00051055  RH  064%=      5-min Rain = 0
KWA1 020543Z 27005KT 01/M06 A3036 RMK A01 T00051056  RH  064%=      5-min Rain = 0
KWA1 020544Z 27005KT 00/M06 A3036 RMK A01 T00041057  RH  063%=      5-min Rain = 0
KWA1 020545Z 27005KT 00/M06 A3036 RMK A01 T00031057  RH  064%=      5-min Rain = 0
KWA1 020546Z 27004KT 00/M06 A3036 RMK A01 T00031057  RH  064%=      5-min Rain = 0
KWA1 020547Z 27004KT 00/M06 A3036 RMK A01 T00031056  RH  064%=      5-min Rain = 0
KWA1 020548Z 27004KT 00/M06 A3036 RMK A01 T00031056  RH  064%=      5-min Rain = 0
KWA1 020549Z 28004KT 00/M06 A3036 RMK A01 T00041055  RH  065%=      5-min Rain = 0
KWA1 020550Z 27004KT 01/M05 A3036 RMK A01 T00051054  RH  064%=      5-min Rain = 0
KWA1 020551Z 27004KT 01/M05 A3036 RMK A01 T00061054  RH  064%=      5-min Rain = 0
KWA1 020552Z 27004KT 01/M06 A3036 RMK A01 T00051055  RH  064%=      5-min Rain = 0
KWA1 020553Z 27004KT 01/M06 A3036 RMK A01 T00051056  RH  064%=      5-min Rain = 0
KWA1 020554Z 27005KT 00/M06 A3036 RMK A01 T00041057  RH  064%=      5-min Rain = 0
KWA1 020555Z 27005KT 00/M06 A3036 RMK A01 T00031058  RH  064%=      5-min Rain = 0
KWA1 020556Z 27006KT 00/M06 A3036 RMK A01 T00021058  RH  064%=      5-min Rain = 0
KWA1 020557Z 27006KT 00/M06 A3036 RMK A01 T00021058  RH  064%=      5-min Rain = 0
KWA1 020558Z 27005KT 00/M06 A3036 RMK A01 T00011059  RH  064%=      5-min Rain = 0
KWA1 020559Z 27005KT 00/M06 A3036 RMK A01 T00011059  RH  064%=      5-min Rain = 0

Page generated in 0.0663 seconds.